<?xml version="1.0" encoding="UTF-8" standalone="no" ?>
<gpx xmlns="http://www.topografix.com/GPX/1/1" xmlns:xsi="http://www.w3.org/2001/XMLSchema-instance" xsi:schemaLocation="http://www.topografix.com/GPX/1/1 http://www.topografix.com/GPX/1/1/gpx.xsd" version="1.1" creator="VisuGPX - https://www.visugpx.com">
  <metadata>
    <name>Le Cheylard : Gare-Riotord-La Gardette</name>
    <desc><![CDATA[gare.rotors.gardette]]></desc>
  </metadata>
  <trk>
    <name><![CDATA[2 avr. 2017 13:36:16]]></name>
    <desc><![CDATA[gare.rotors.gardette]]></desc>
    <trkseg>
      <trkpt lat="44.91249" lon="4.42722">
        <ele>482</ele>
        <time>2017-04-02T11:36:17.000Z</time>
      </trkpt>
      <trkpt lat="44.91246" lon="4.42709">
        <ele>480</ele>
        <time>2017-04-02T11:36:25.000Z</time>
      </trkpt>
      <trkpt lat="44.9124" lon="4.42697">
        <ele>483</ele>
        <time>2017-04-02T11:36:33.000Z</time>
      </trkpt>
      <trkpt lat="44.91239" lon="4.42684">
        <ele>482</ele>
        <time>2017-04-02T11:36:41.000Z</time>
      </trkpt>
      <trkpt lat="44.91238" lon="4.4267">
        <ele>482</ele>
        <time>2017-04-02T11:36:49.000Z</time>
      </trkpt>
      <trkpt lat="44.91241" lon="4.42657">
        <ele>480</ele>
        <time>2017-04-02T11:36:58.000Z</time>
      </trkpt>
      <trkpt lat="44.91242" lon="4.42643">
        <ele>479</ele>
        <time>2017-04-02T11:37:06.000Z</time>
      </trkpt>
      <trkpt lat="44.91243" lon="4.4263">
        <ele>479</ele>
        <time>2017-04-02T11:37:14.000Z</time>
      </trkpt>
      <trkpt lat="44.91247" lon="4.42618">
        <ele>479</ele>
        <time>2017-04-02T11:37:21.000Z</time>
      </trkpt>
      <trkpt lat="44.91252" lon="4.42605">
        <ele>481</ele>
        <time>2017-04-02T11:37:29.000Z</time>
      </trkpt>
      <trkpt lat="44.91257" lon="4.42594">
        <ele>481</ele>
        <time>2017-04-02T11:37:37.000Z</time>
      </trkpt>
      <trkpt lat="44.91262" lon="4.42583">
        <ele>480</ele>
        <time>2017-04-02T11:37:44.000Z</time>
      </trkpt>
      <trkpt lat="44.91267" lon="4.42571">
        <ele>483</ele>
        <time>2017-04-02T11:37:53.000Z</time>
      </trkpt>
      <trkpt lat="44.91272" lon="4.42559">
        <ele>484</ele>
        <time>2017-04-02T11:38:01.000Z</time>
      </trkpt>
      <trkpt lat="44.91277" lon="4.42548">
        <ele>483</ele>
        <time>2017-04-02T11:38:09.000Z</time>
      </trkpt>
      <trkpt lat="44.91282" lon="4.42536">
        <ele>483</ele>
        <time>2017-04-02T11:38:17.000Z</time>
      </trkpt>
      <trkpt lat="44.91288" lon="4.42526">
        <ele>482</ele>
        <time>2017-04-02T11:38:25.000Z</time>
      </trkpt>
      <trkpt lat="44.91296" lon="4.42517">
        <ele>482</ele>
        <time>2017-04-02T11:38:34.000Z</time>
      </trkpt>
      <trkpt lat="44.91304" lon="4.42509">
        <ele>480</ele>
        <time>2017-04-02T11:38:43.000Z</time>
      </trkpt>
      <trkpt lat="44.91313" lon="4.42504">
        <ele>480</ele>
        <time>2017-04-02T11:38:51.000Z</time>
      </trkpt>
      <trkpt lat="44.91322" lon="4.42499">
        <ele>481</ele>
        <time>2017-04-02T11:38:59.000Z</time>
      </trkpt>
      <trkpt lat="44.91332" lon="4.42496">
        <ele>480</ele>
        <time>2017-04-02T11:39:06.000Z</time>
      </trkpt>
      <trkpt lat="44.91341" lon="4.42493">
        <ele>480</ele>
        <time>2017-04-02T11:39:14.000Z</time>
      </trkpt>
      <trkpt lat="44.91351" lon="4.4249">
        <ele>481</ele>
        <time>2017-04-02T11:39:23.000Z</time>
      </trkpt>
      <trkpt lat="44.91362" lon="4.42486">
        <ele>481</ele>
        <time>2017-04-02T11:39:32.000Z</time>
      </trkpt>
      <trkpt lat="44.9137" lon="4.42482">
        <ele>481</ele>
        <time>2017-04-02T11:39:40.000Z</time>
      </trkpt>
      <trkpt lat="44.9138" lon="4.42478">
        <ele>480</ele>
        <time>2017-04-02T11:39:49.000Z</time>
      </trkpt>
      <trkpt lat="44.91388" lon="4.42476">
        <ele>481</ele>
        <time>2017-04-02T11:39:57.000Z</time>
      </trkpt>
      <trkpt lat="44.91398" lon="4.42472">
        <ele>481</ele>
        <time>2017-04-02T11:40:08.000Z</time>
      </trkpt>
      <trkpt lat="44.91407" lon="4.42464">
        <ele>484</ele>
        <time>2017-04-02T11:40:20.000Z</time>
      </trkpt>
      <trkpt lat="44.91417" lon="4.4246">
        <ele>485</ele>
        <time>2017-04-02T11:40:28.000Z</time>
      </trkpt>
      <trkpt lat="44.91428" lon="4.42453">
        <ele>485</ele>
        <time>2017-04-02T11:40:39.000Z</time>
      </trkpt>
      <trkpt lat="44.91438" lon="4.42445">
        <ele>484</ele>
        <time>2017-04-02T11:40:50.000Z</time>
      </trkpt>
      <trkpt lat="44.91447" lon="4.42438">
        <ele>484</ele>
        <time>2017-04-02T11:40:57.000Z</time>
      </trkpt>
      <trkpt lat="44.91454" lon="4.4243">
        <ele>485</ele>
        <time>2017-04-02T11:41:05.000Z</time>
      </trkpt>
      <trkpt lat="44.91464" lon="4.42422">
        <ele>485</ele>
        <time>2017-04-02T11:41:13.000Z</time>
      </trkpt>
      <trkpt lat="44.91471" lon="4.42413">
        <ele>485</ele>
        <time>2017-04-02T11:41:20.000Z</time>
      </trkpt>
      <trkpt lat="44.91479" lon="4.42403">
        <ele>486</ele>
        <time>2017-04-02T11:41:28.000Z</time>
      </trkpt>
      <trkpt lat="44.91487" lon="4.42394">
        <ele>486</ele>
        <time>2017-04-02T11:41:33.000Z</time>
      </trkpt>
      <trkpt lat="44.91495" lon="4.42383">
        <ele>484</ele>
        <time>2017-04-02T11:41:41.000Z</time>
      </trkpt>
      <trkpt lat="44.91498" lon="4.42371">
        <ele>484</ele>
        <time>2017-04-02T11:42:14.000Z</time>
      </trkpt>
      <trkpt lat="44.91504" lon="4.4236">
        <ele>486</ele>
        <time>2017-04-02T11:42:26.000Z</time>
      </trkpt>
      <trkpt lat="44.91509" lon="4.42346">
        <ele>486</ele>
        <time>2017-04-02T11:42:32.000Z</time>
      </trkpt>
      <trkpt lat="44.91514" lon="4.42335">
        <ele>485</ele>
        <time>2017-04-02T11:42:37.000Z</time>
      </trkpt>
      <trkpt lat="44.91521" lon="4.4232">
        <ele>486</ele>
        <time>2017-04-02T11:42:45.000Z</time>
      </trkpt>
      <trkpt lat="44.91529" lon="4.42306">
        <ele>487</ele>
        <time>2017-04-02T11:42:53.000Z</time>
      </trkpt>
      <trkpt lat="44.91536" lon="4.42291">
        <ele>488</ele>
        <time>2017-04-02T11:43:02.000Z</time>
      </trkpt>
      <trkpt lat="44.91544" lon="4.42277">
        <ele>487</ele>
        <time>2017-04-02T11:43:10.000Z</time>
      </trkpt>
      <trkpt lat="44.9155" lon="4.42267">
        <ele>486</ele>
        <time>2017-04-02T11:43:16.000Z</time>
      </trkpt>
      <trkpt lat="44.91557" lon="4.42257">
        <ele>486</ele>
        <time>2017-04-02T11:43:22.000Z</time>
      </trkpt>
      <trkpt lat="44.91567" lon="4.42245">
        <ele>485</ele>
        <time>2017-04-02T11:43:30.000Z</time>
      </trkpt>
      <trkpt lat="44.91573" lon="4.42231">
        <ele>491</ele>
        <time>2017-04-02T11:43:38.000Z</time>
      </trkpt>
      <trkpt lat="44.91581" lon="4.42221">
        <ele>492</ele>
        <time>2017-04-02T11:43:47.000Z</time>
      </trkpt>
      <trkpt lat="44.91586" lon="4.42209">
        <ele>499</ele>
        <time>2017-04-02T11:43:58.000Z</time>
      </trkpt>
      <trkpt lat="44.91593" lon="4.42196">
        <ele>502</ele>
        <time>2017-04-02T11:44:09.000Z</time>
      </trkpt>
      <trkpt lat="44.91602" lon="4.42186">
        <ele>503</ele>
        <time>2017-04-02T11:44:18.000Z</time>
      </trkpt>
      <trkpt lat="44.9161" lon="4.42177">
        <ele>501</ele>
        <time>2017-04-02T11:44:26.000Z</time>
      </trkpt>
      <trkpt lat="44.91619" lon="4.42167">
        <ele>497</ele>
        <time>2017-04-02T11:44:37.000Z</time>
      </trkpt>
      <trkpt lat="44.91626" lon="4.42156">
        <ele>500</ele>
        <time>2017-04-02T11:44:47.000Z</time>
      </trkpt>
      <trkpt lat="44.91633" lon="4.42147">
        <ele>498</ele>
        <time>2017-04-02T11:44:54.000Z</time>
      </trkpt>
      <trkpt lat="44.9164" lon="4.4214">
        <ele>498</ele>
        <time>2017-04-02T11:45:02.000Z</time>
      </trkpt>
      <trkpt lat="44.91648" lon="4.42126">
        <ele>501</ele>
        <time>2017-04-02T11:45:14.000Z</time>
      </trkpt>
      <trkpt lat="44.91655" lon="4.42115">
        <ele>502</ele>
        <time>2017-04-02T11:45:22.000Z</time>
      </trkpt>
      <trkpt lat="44.91662" lon="4.42105">
        <ele>503</ele>
        <time>2017-04-02T11:45:30.000Z</time>
      </trkpt>
      <trkpt lat="44.9167" lon="4.42098">
        <ele>504</ele>
        <time>2017-04-02T11:45:37.000Z</time>
      </trkpt>
      <trkpt lat="44.91678" lon="4.42086">
        <ele>503</ele>
        <time>2017-04-02T11:45:47.000Z</time>
      </trkpt>
      <trkpt lat="44.91682" lon="4.42072">
        <ele>506</ele>
        <time>2017-04-02T11:45:58.000Z</time>
      </trkpt>
      <trkpt lat="44.91691" lon="4.4206">
        <ele>512</ele>
        <time>2017-04-02T11:46:09.000Z</time>
      </trkpt>
      <trkpt lat="44.91693" lon="4.42044">
        <ele>509</ele>
        <time>2017-04-02T11:46:18.000Z</time>
      </trkpt>
      <trkpt lat="44.91697" lon="4.42029">
        <ele>507</ele>
        <time>2017-04-02T11:46:27.000Z</time>
      </trkpt>
      <trkpt lat="44.91701" lon="4.42016">
        <ele>504</ele>
        <time>2017-04-02T11:46:36.000Z</time>
      </trkpt>
      <trkpt lat="44.91702" lon="4.41999">
        <ele>501</ele>
        <time>2017-04-02T11:46:45.000Z</time>
      </trkpt>
      <trkpt lat="44.91701" lon="4.41975">
        <ele>501</ele>
        <time>2017-04-02T11:46:59.000Z</time>
      </trkpt>
      <trkpt lat="44.91701" lon="4.41961">
        <ele>501</ele>
        <time>2017-04-02T11:47:07.000Z</time>
      </trkpt>
      <trkpt lat="44.91701" lon="4.41948">
        <ele>502</ele>
        <time>2017-04-02T11:47:16.000Z</time>
      </trkpt>
      <trkpt lat="44.917" lon="4.41932">
        <ele>499</ele>
        <time>2017-04-02T11:47:25.000Z</time>
      </trkpt>
      <trkpt lat="44.917" lon="4.41917">
        <ele>498</ele>
        <time>2017-04-02T11:47:34.000Z</time>
      </trkpt>
      <trkpt lat="44.91698" lon="4.41901">
        <ele>496</ele>
        <time>2017-04-02T11:47:43.000Z</time>
      </trkpt>
      <trkpt lat="44.91696" lon="4.41887">
        <ele>497</ele>
        <time>2017-04-02T11:47:52.000Z</time>
      </trkpt>
      <trkpt lat="44.91695" lon="4.41872">
        <ele>497</ele>
        <time>2017-04-02T11:48:01.000Z</time>
      </trkpt>
      <trkpt lat="44.91676" lon="4.41799">
        <ele>501</ele>
        <time>2017-04-02T11:48:48.000Z</time>
      </trkpt>
      <trkpt lat="44.9167" lon="4.41786">
        <ele>501</ele>
        <time>2017-04-02T11:48:57.000Z</time>
      </trkpt>
      <trkpt lat="44.91666" lon="4.41774">
        <ele>503</ele>
        <time>2017-04-02T11:49:06.000Z</time>
      </trkpt>
      <trkpt lat="44.9166" lon="4.41762">
        <ele>504</ele>
        <time>2017-04-02T11:49:15.000Z</time>
      </trkpt>
      <trkpt lat="44.91654" lon="4.41749">
        <ele>504</ele>
        <time>2017-04-02T11:49:23.000Z</time>
      </trkpt>
      <trkpt lat="44.91648" lon="4.41737">
        <ele>504</ele>
        <time>2017-04-02T11:49:32.000Z</time>
      </trkpt>
      <trkpt lat="44.91642" lon="4.41722">
        <ele>506</ele>
        <time>2017-04-02T11:49:44.000Z</time>
      </trkpt>
      <trkpt lat="44.91637" lon="4.41708">
        <ele>509</ele>
        <time>2017-04-02T11:49:55.000Z</time>
      </trkpt>
      <trkpt lat="44.91634" lon="4.41695">
        <ele>509</ele>
        <time>2017-04-02T11:50:03.000Z</time>
      </trkpt>
      <trkpt lat="44.91631" lon="4.41682">
        <ele>511</ele>
        <time>2017-04-02T11:50:12.000Z</time>
      </trkpt>
      <trkpt lat="44.9163" lon="4.41667">
        <ele>512</ele>
        <time>2017-04-02T11:50:21.000Z</time>
      </trkpt>
      <trkpt lat="44.91628" lon="4.41653">
        <ele>512</ele>
        <time>2017-04-02T11:50:30.000Z</time>
      </trkpt>
      <trkpt lat="44.91628" lon="4.41639">
        <ele>513</ele>
        <time>2017-04-02T11:50:38.000Z</time>
      </trkpt>
      <trkpt lat="44.91631" lon="4.41625">
        <ele>512</ele>
        <time>2017-04-02T11:50:47.000Z</time>
      </trkpt>
      <trkpt lat="44.91633" lon="4.41612">
        <ele>512</ele>
        <time>2017-04-02T11:50:55.000Z</time>
      </trkpt>
      <trkpt lat="44.91638" lon="4.416">
        <ele>515</ele>
        <time>2017-04-02T11:51:03.000Z</time>
      </trkpt>
      <trkpt lat="44.9164" lon="4.41581">
        <ele>513</ele>
        <time>2017-04-02T11:51:14.000Z</time>
      </trkpt>
      <trkpt lat="44.91644" lon="4.41567">
        <ele>509</ele>
        <time>2017-04-02T11:51:23.000Z</time>
      </trkpt>
      <trkpt lat="44.91652" lon="4.41562">
        <ele>513</ele>
        <time>2017-04-02T11:51:29.000Z</time>
      </trkpt>
      <trkpt lat="44.9166" lon="4.41553">
        <ele>510</ele>
        <time>2017-04-02T11:51:38.000Z</time>
      </trkpt>
      <trkpt lat="44.91667" lon="4.41545">
        <ele>511</ele>
        <time>2017-04-02T11:51:45.000Z</time>
      </trkpt>
      <trkpt lat="44.91676" lon="4.41535">
        <ele>512</ele>
        <time>2017-04-02T11:51:57.000Z</time>
      </trkpt>
      <trkpt lat="44.91695" lon="4.4152">
        <ele>515</ele>
        <time>2017-04-02T11:52:16.000Z</time>
      </trkpt>
      <trkpt lat="44.91705" lon="4.41512">
        <ele>517</ele>
        <time>2017-04-02T11:52:25.000Z</time>
      </trkpt>
      <trkpt lat="44.91715" lon="4.41507">
        <ele>518</ele>
        <time>2017-04-02T11:52:34.000Z</time>
      </trkpt>
      <trkpt lat="44.91723" lon="4.41501">
        <ele>517</ele>
        <time>2017-04-02T11:52:42.000Z</time>
      </trkpt>
      <trkpt lat="44.91733" lon="4.41494">
        <ele>514</ele>
        <time>2017-04-02T11:52:51.000Z</time>
      </trkpt>
      <trkpt lat="44.91742" lon="4.41486">
        <ele>514</ele>
        <time>2017-04-02T11:52:59.000Z</time>
      </trkpt>
      <trkpt lat="44.91752" lon="4.41476">
        <ele>514</ele>
        <time>2017-04-02T11:53:08.000Z</time>
      </trkpt>
      <trkpt lat="44.91757" lon="4.41464">
        <ele>516</ele>
        <time>2017-04-02T11:53:17.000Z</time>
      </trkpt>
      <trkpt lat="44.91762" lon="4.41451">
        <ele>514</ele>
        <time>2017-04-02T11:53:26.000Z</time>
      </trkpt>
      <trkpt lat="44.91769" lon="4.41441">
        <ele>513</ele>
        <time>2017-04-02T11:53:34.000Z</time>
      </trkpt>
      <trkpt lat="44.91774" lon="4.41431">
        <ele>514</ele>
        <time>2017-04-02T11:53:42.000Z</time>
      </trkpt>
      <trkpt lat="44.9178" lon="4.41419">
        <ele>513</ele>
        <time>2017-04-02T11:53:51.000Z</time>
      </trkpt>
      <trkpt lat="44.91787" lon="4.41406">
        <ele>514</ele>
        <time>2017-04-02T11:54:00.000Z</time>
      </trkpt>
      <trkpt lat="44.91792" lon="4.41396">
        <ele>514</ele>
        <time>2017-04-02T11:54:09.000Z</time>
      </trkpt>
      <trkpt lat="44.918" lon="4.41383">
        <ele>514</ele>
        <time>2017-04-02T11:54:18.000Z</time>
      </trkpt>
      <trkpt lat="44.91806" lon="4.41371">
        <ele>515</ele>
        <time>2017-04-02T11:54:26.000Z</time>
      </trkpt>
      <trkpt lat="44.91811" lon="4.41358">
        <ele>516</ele>
        <time>2017-04-02T11:54:34.000Z</time>
      </trkpt>
      <trkpt lat="44.91819" lon="4.41347">
        <ele>514</ele>
        <time>2017-04-02T11:54:43.000Z</time>
      </trkpt>
      <trkpt lat="44.91826" lon="4.41337">
        <ele>513</ele>
        <time>2017-04-02T11:54:52.000Z</time>
      </trkpt>
      <trkpt lat="44.91834" lon="4.41325">
        <ele>513</ele>
        <time>2017-04-02T11:55:01.000Z</time>
      </trkpt>
      <trkpt lat="44.91839" lon="4.41313">
        <ele>511</ele>
        <time>2017-04-02T11:55:10.000Z</time>
      </trkpt>
      <trkpt lat="44.91846" lon="4.413">
        <ele>512</ele>
        <time>2017-04-02T11:55:19.000Z</time>
      </trkpt>
      <trkpt lat="44.9185" lon="4.41288">
        <ele>513</ele>
        <time>2017-04-02T11:55:27.000Z</time>
      </trkpt>
      <trkpt lat="44.91853" lon="4.41275">
        <ele>514</ele>
        <time>2017-04-02T11:55:36.000Z</time>
      </trkpt>
      <trkpt lat="44.91858" lon="4.41262">
        <ele>516</ele>
        <time>2017-04-02T11:55:45.000Z</time>
      </trkpt>
      <trkpt lat="44.9187" lon="4.41246">
        <ele>515</ele>
        <time>2017-04-02T11:55:58.000Z</time>
      </trkpt>
      <trkpt lat="44.91877" lon="4.41235">
        <ele>515</ele>
        <time>2017-04-02T11:56:07.000Z</time>
      </trkpt>
      <trkpt lat="44.91884" lon="4.41223">
        <ele>520</ele>
        <time>2017-04-02T11:56:18.000Z</time>
      </trkpt>
      <trkpt lat="44.91894" lon="4.41215">
        <ele>521</ele>
        <time>2017-04-02T11:56:27.000Z</time>
      </trkpt>
      <trkpt lat="44.91903" lon="4.41209">
        <ele>522</ele>
        <time>2017-04-02T11:56:36.000Z</time>
      </trkpt>
      <trkpt lat="44.91911" lon="4.41204">
        <ele>522</ele>
        <time>2017-04-02T11:56:42.000Z</time>
      </trkpt>
      <trkpt lat="44.91921" lon="4.412">
        <ele>524</ele>
        <time>2017-04-02T11:56:50.000Z</time>
      </trkpt>
      <trkpt lat="44.91933" lon="4.41196">
        <ele>524</ele>
        <time>2017-04-02T11:57:00.000Z</time>
      </trkpt>
      <trkpt lat="44.91943" lon="4.41191">
        <ele>522</ele>
        <time>2017-04-02T11:57:08.000Z</time>
      </trkpt>
      <trkpt lat="44.91953" lon="4.41187">
        <ele>523</ele>
        <time>2017-04-02T11:57:17.000Z</time>
      </trkpt>
      <trkpt lat="44.91962" lon="4.41185">
        <ele>524</ele>
        <time>2017-04-02T11:57:26.000Z</time>
      </trkpt>
      <trkpt lat="44.91973" lon="4.41179">
        <ele>521</ele>
        <time>2017-04-02T11:57:34.000Z</time>
      </trkpt>
      <trkpt lat="44.91986" lon="4.41178">
        <ele>520</ele>
        <time>2017-04-02T11:57:42.000Z</time>
      </trkpt>
      <trkpt lat="44.91998" lon="4.41174">
        <ele>520</ele>
        <time>2017-04-02T11:57:51.000Z</time>
      </trkpt>
      <trkpt lat="44.92009" lon="4.41168">
        <ele>519</ele>
        <time>2017-04-02T11:58:00.000Z</time>
      </trkpt>
      <trkpt lat="44.92018" lon="4.41164">
        <ele>520</ele>
        <time>2017-04-02T11:58:08.000Z</time>
      </trkpt>
      <trkpt lat="44.92028" lon="4.41158">
        <ele>521</ele>
        <time>2017-04-02T11:58:17.000Z</time>
      </trkpt>
      <trkpt lat="44.92036" lon="4.41151">
        <ele>522</ele>
        <time>2017-04-02T11:58:26.000Z</time>
      </trkpt>
      <trkpt lat="44.92046" lon="4.41144">
        <ele>520</ele>
        <time>2017-04-02T11:58:34.000Z</time>
      </trkpt>
      <trkpt lat="44.92055" lon="4.41134">
        <ele>521</ele>
        <time>2017-04-02T11:58:45.000Z</time>
      </trkpt>
      <trkpt lat="44.92065" lon="4.41125">
        <ele>523</ele>
        <time>2017-04-02T11:58:54.000Z</time>
      </trkpt>
      <trkpt lat="44.92075" lon="4.41117">
        <ele>526</ele>
        <time>2017-04-02T11:59:04.000Z</time>
      </trkpt>
      <trkpt lat="44.92083" lon="4.4111">
        <ele>528</ele>
        <time>2017-04-02T11:59:12.000Z</time>
      </trkpt>
      <trkpt lat="44.92092" lon="4.41101">
        <ele>530</ele>
        <time>2017-04-02T11:59:22.000Z</time>
      </trkpt>
      <trkpt lat="44.92099" lon="4.4109">
        <ele>529</ele>
        <time>2017-04-02T11:59:31.000Z</time>
      </trkpt>
      <trkpt lat="44.92108" lon="4.41081">
        <ele>526</ele>
        <time>2017-04-02T11:59:40.000Z</time>
      </trkpt>
      <trkpt lat="44.92114" lon="4.41069">
        <ele>525</ele>
        <time>2017-04-02T11:59:49.000Z</time>
      </trkpt>
      <trkpt lat="44.92119" lon="4.41057">
        <ele>524</ele>
        <time>2017-04-02T11:59:58.000Z</time>
      </trkpt>
      <trkpt lat="44.9212" lon="4.41044">
        <ele>524</ele>
        <time>2017-04-02T12:00:06.000Z</time>
      </trkpt>
      <trkpt lat="44.92125" lon="4.41021">
        <ele>530</ele>
        <time>2017-04-02T12:00:23.000Z</time>
      </trkpt>
      <trkpt lat="44.92132" lon="4.41006">
        <ele>527</ele>
        <time>2017-04-02T12:00:32.000Z</time>
      </trkpt>
      <trkpt lat="44.92136" lon="4.40988">
        <ele>526</ele>
        <time>2017-04-02T12:00:45.000Z</time>
      </trkpt>
      <trkpt lat="44.92139" lon="4.40977">
        <ele>531</ele>
        <time>2017-04-02T12:00:54.000Z</time>
      </trkpt>
      <trkpt lat="44.92134" lon="4.40959">
        <ele>538</ele>
        <time>2017-04-02T12:01:07.000Z</time>
      </trkpt>
      <trkpt lat="44.92133" lon="4.40945">
        <ele>541</ele>
        <time>2017-04-02T12:01:15.000Z</time>
      </trkpt>
      <trkpt lat="44.92132" lon="4.40928">
        <ele>540</ele>
        <time>2017-04-02T12:01:24.000Z</time>
      </trkpt>
      <trkpt lat="44.9213" lon="4.40916">
        <ele>538</ele>
        <time>2017-04-02T12:01:30.000Z</time>
      </trkpt>
      <trkpt lat="44.92129" lon="4.40902">
        <ele>536</ele>
        <time>2017-04-02T12:01:37.000Z</time>
      </trkpt>
      <trkpt lat="44.92127" lon="4.40888">
        <ele>535</ele>
        <time>2017-04-02T12:01:45.000Z</time>
      </trkpt>
      <trkpt lat="44.92125" lon="4.40872">
        <ele>533</ele>
        <time>2017-04-02T12:01:54.000Z</time>
      </trkpt>
      <trkpt lat="44.92124" lon="4.40857">
        <ele>534</ele>
        <time>2017-04-02T12:02:03.000Z</time>
      </trkpt>
      <trkpt lat="44.92125" lon="4.40844">
        <ele>534</ele>
        <time>2017-04-02T12:02:11.000Z</time>
      </trkpt>
      <trkpt lat="44.92125" lon="4.40826">
        <ele>534</ele>
        <time>2017-04-02T12:02:20.000Z</time>
      </trkpt>
      <trkpt lat="44.92128" lon="4.40811">
        <ele>534</ele>
        <time>2017-04-02T12:02:29.000Z</time>
      </trkpt>
      <trkpt lat="44.92131" lon="4.40796">
        <ele>533</ele>
        <time>2017-04-02T12:02:38.000Z</time>
      </trkpt>
      <trkpt lat="44.92136" lon="4.40781">
        <ele>533</ele>
        <time>2017-04-02T12:02:47.000Z</time>
      </trkpt>
      <trkpt lat="44.92142" lon="4.40765">
        <ele>534</ele>
        <time>2017-04-02T12:02:56.000Z</time>
      </trkpt>
      <trkpt lat="44.9215" lon="4.4075">
        <ele>534</ele>
        <time>2017-04-02T12:03:07.000Z</time>
      </trkpt>
      <trkpt lat="44.92158" lon="4.40745">
        <ele>534</ele>
        <time>2017-04-02T12:03:13.000Z</time>
      </trkpt>
      <trkpt lat="44.92165" lon="4.40736">
        <ele>533</ele>
        <time>2017-04-02T12:03:20.000Z</time>
      </trkpt>
      <trkpt lat="44.92175" lon="4.40731">
        <ele>531</ele>
        <time>2017-04-02T12:03:27.000Z</time>
      </trkpt>
      <trkpt lat="44.92185" lon="4.40727">
        <ele>532</ele>
        <time>2017-04-02T12:03:35.000Z</time>
      </trkpt>
      <trkpt lat="44.92194" lon="4.40721">
        <ele>533</ele>
        <time>2017-04-02T12:03:43.000Z</time>
      </trkpt>
      <trkpt lat="44.92206" lon="4.40718">
        <ele>532</ele>
        <time>2017-04-02T12:03:52.000Z</time>
      </trkpt>
      <trkpt lat="44.92217" lon="4.40718">
        <ele>531</ele>
        <time>2017-04-02T12:04:00.000Z</time>
      </trkpt>
      <trkpt lat="44.92228" lon="4.40717">
        <ele>532</ele>
        <time>2017-04-02T12:04:09.000Z</time>
      </trkpt>
      <trkpt lat="44.92239" lon="4.40722">
        <ele>531</ele>
        <time>2017-04-02T12:04:18.000Z</time>
      </trkpt>
      <trkpt lat="44.9225" lon="4.40725">
        <ele>530</ele>
        <time>2017-04-02T12:04:26.000Z</time>
      </trkpt>
      <trkpt lat="44.92261" lon="4.40728">
        <ele>531</ele>
        <time>2017-04-02T12:04:35.000Z</time>
      </trkpt>
      <trkpt lat="44.9227" lon="4.40729">
        <ele>531</ele>
        <time>2017-04-02T12:04:43.000Z</time>
      </trkpt>
      <trkpt lat="44.9228" lon="4.4073">
        <ele>530</ele>
        <time>2017-04-02T12:04:52.000Z</time>
      </trkpt>
      <trkpt lat="44.9229" lon="4.40728">
        <ele>531</ele>
        <time>2017-04-02T12:05:00.000Z</time>
      </trkpt>
      <trkpt lat="44.923" lon="4.40725">
        <ele>532</ele>
        <time>2017-04-02T12:05:10.000Z</time>
      </trkpt>
      <trkpt lat="44.92312" lon="4.40721">
        <ele>533</ele>
        <time>2017-04-02T12:05:19.000Z</time>
      </trkpt>
      <trkpt lat="44.92321" lon="4.40715">
        <ele>535</ele>
        <time>2017-04-02T12:05:27.000Z</time>
      </trkpt>
      <trkpt lat="44.92331" lon="4.4071">
        <ele>536</ele>
        <time>2017-04-02T12:05:35.000Z</time>
      </trkpt>
      <trkpt lat="44.9234" lon="4.40701">
        <ele>537</ele>
        <time>2017-04-02T12:05:45.000Z</time>
      </trkpt>
      <trkpt lat="44.9235" lon="4.40693">
        <ele>536</ele>
        <time>2017-04-02T12:05:54.000Z</time>
      </trkpt>
      <trkpt lat="44.92358" lon="4.40685">
        <ele>536</ele>
        <time>2017-04-02T12:06:03.000Z</time>
      </trkpt>
      <trkpt lat="44.92368" lon="4.40676">
        <ele>536</ele>
        <time>2017-04-02T12:06:12.000Z</time>
      </trkpt>
      <trkpt lat="44.92379" lon="4.40668">
        <ele>533</ele>
        <time>2017-04-02T12:06:21.000Z</time>
      </trkpt>
      <trkpt lat="44.92389" lon="4.40659">
        <ele>534</ele>
        <time>2017-04-02T12:06:30.000Z</time>
      </trkpt>
      <trkpt lat="44.924" lon="4.40653">
        <ele>532</ele>
        <time>2017-04-02T12:06:39.000Z</time>
      </trkpt>
      <trkpt lat="44.9241" lon="4.40645">
        <ele>530</ele>
        <time>2017-04-02T12:06:48.000Z</time>
      </trkpt>
      <trkpt lat="44.92416" lon="4.40636">
        <ele>530</ele>
        <time>2017-04-02T12:06:57.000Z</time>
      </trkpt>
      <trkpt lat="44.92423" lon="4.40626">
        <ele>530</ele>
        <time>2017-04-02T12:07:05.000Z</time>
      </trkpt>
      <trkpt lat="44.92427" lon="4.40614">
        <ele>531</ele>
        <time>2017-04-02T12:07:14.000Z</time>
      </trkpt>
      <trkpt lat="44.92432" lon="4.40601">
        <ele>532</ele>
        <time>2017-04-02T12:07:22.000Z</time>
      </trkpt>
      <trkpt lat="44.92438" lon="4.40587">
        <ele>532</ele>
        <time>2017-04-02T12:07:31.000Z</time>
      </trkpt>
      <trkpt lat="44.92442" lon="4.40573">
        <ele>536</ele>
        <time>2017-04-02T12:07:41.000Z</time>
      </trkpt>
      <trkpt lat="44.92441" lon="4.40559">
        <ele>536</ele>
        <time>2017-04-02T12:07:50.000Z</time>
      </trkpt>
      <trkpt lat="44.92444" lon="4.40547">
        <ele>541</ele>
        <time>2017-04-02T12:07:58.000Z</time>
      </trkpt>
      <trkpt lat="44.92445" lon="4.40531">
        <ele>543</ele>
        <time>2017-04-02T12:08:07.000Z</time>
      </trkpt>
      <trkpt lat="44.92446" lon="4.40515">
        <ele>542</ele>
        <time>2017-04-02T12:08:16.000Z</time>
      </trkpt>
      <trkpt lat="44.92447" lon="4.40498">
        <ele>540</ele>
        <time>2017-04-02T12:08:25.000Z</time>
      </trkpt>
      <trkpt lat="44.92448" lon="4.40483">
        <ele>538</ele>
        <time>2017-04-02T12:08:34.000Z</time>
      </trkpt>
      <trkpt lat="44.92452" lon="4.40467">
        <ele>536</ele>
        <time>2017-04-02T12:08:43.000Z</time>
      </trkpt>
      <trkpt lat="44.92458" lon="4.40452">
        <ele>536</ele>
        <time>2017-04-02T12:08:52.000Z</time>
      </trkpt>
      <trkpt lat="44.92463" lon="4.40438">
        <ele>533</ele>
        <time>2017-04-02T12:09:01.000Z</time>
      </trkpt>
      <trkpt lat="44.92471" lon="4.40425">
        <ele>535</ele>
        <time>2017-04-02T12:09:10.000Z</time>
      </trkpt>
      <trkpt lat="44.92477" lon="4.40415">
        <ele>537</ele>
        <time>2017-04-02T12:09:18.000Z</time>
      </trkpt>
      <trkpt lat="44.92487" lon="4.40406">
        <ele>536</ele>
        <time>2017-04-02T12:09:27.000Z</time>
      </trkpt>
      <trkpt lat="44.92497" lon="4.40398">
        <ele>536</ele>
        <time>2017-04-02T12:09:36.000Z</time>
      </trkpt>
      <trkpt lat="44.92505" lon="4.40394">
        <ele>535</ele>
        <time>2017-04-02T12:09:43.000Z</time>
      </trkpt>
      <trkpt lat="44.92514" lon="4.40389">
        <ele>536</ele>
        <time>2017-04-02T12:09:51.000Z</time>
      </trkpt>
      <trkpt lat="44.92557" lon="4.40379">
        <ele>540</ele>
        <time>2017-04-02T12:10:26.000Z</time>
      </trkpt>
      <trkpt lat="44.92568" lon="4.40378">
        <ele>539</ele>
        <time>2017-04-02T12:10:35.000Z</time>
      </trkpt>
      <trkpt lat="44.92579" lon="4.40378">
        <ele>540</ele>
        <time>2017-04-02T12:10:44.000Z</time>
      </trkpt>
      <trkpt lat="44.92589" lon="4.40374">
        <ele>541</ele>
        <time>2017-04-02T12:10:54.000Z</time>
      </trkpt>
      <trkpt lat="44.926" lon="4.40368">
        <ele>541</ele>
        <time>2017-04-02T12:11:03.000Z</time>
      </trkpt>
      <trkpt lat="44.92609" lon="4.40362">
        <ele>541</ele>
        <time>2017-04-02T12:11:12.000Z</time>
      </trkpt>
      <trkpt lat="44.92623" lon="4.40349">
        <ele>540</ele>
        <time>2017-04-02T12:11:28.000Z</time>
      </trkpt>
      <trkpt lat="44.9263" lon="4.40338">
        <ele>540</ele>
        <time>2017-04-02T12:11:37.000Z</time>
      </trkpt>
      <trkpt lat="44.92637" lon="4.40324">
        <ele>541</ele>
        <time>2017-04-02T12:11:49.000Z</time>
      </trkpt>
      <trkpt lat="44.92645" lon="4.40315">
        <ele>540</ele>
        <time>2017-04-02T12:11:57.000Z</time>
      </trkpt>
      <trkpt lat="44.92651" lon="4.40305">
        <ele>540</ele>
        <time>2017-04-02T12:12:05.000Z</time>
      </trkpt>
      <trkpt lat="44.92658" lon="4.40296">
        <ele>537</ele>
        <time>2017-04-02T12:12:13.000Z</time>
      </trkpt>
      <trkpt lat="44.92665" lon="4.40287">
        <ele>540</ele>
        <time>2017-04-02T12:12:22.000Z</time>
      </trkpt>
      <trkpt lat="44.92672" lon="4.40278">
        <ele>543</ele>
        <time>2017-04-02T12:12:32.000Z</time>
      </trkpt>
      <trkpt lat="44.92681" lon="4.40271">
        <ele>546</ele>
        <time>2017-04-02T12:12:41.000Z</time>
      </trkpt>
      <trkpt lat="44.9269" lon="4.40265">
        <ele>550</ele>
        <time>2017-04-02T12:12:51.000Z</time>
      </trkpt>
      <trkpt lat="44.927" lon="4.40261">
        <ele>553</ele>
        <time>2017-04-02T12:12:59.000Z</time>
      </trkpt>
      <trkpt lat="44.92714" lon="4.40259">
        <ele>552</ele>
        <time>2017-04-02T12:13:08.000Z</time>
      </trkpt>
      <trkpt lat="44.92724" lon="4.4026">
        <ele>550</ele>
        <time>2017-04-02T12:13:14.000Z</time>
      </trkpt>
      <trkpt lat="44.92735" lon="4.40261">
        <ele>550</ele>
        <time>2017-04-02T12:13:22.000Z</time>
      </trkpt>
      <trkpt lat="44.92745" lon="4.40266">
        <ele>548</ele>
        <time>2017-04-02T12:13:30.000Z</time>
      </trkpt>
      <trkpt lat="44.92757" lon="4.40273">
        <ele>547</ele>
        <time>2017-04-02T12:13:39.000Z</time>
      </trkpt>
      <trkpt lat="44.92768" lon="4.40279">
        <ele>547</ele>
        <time>2017-04-02T12:13:49.000Z</time>
      </trkpt>
      <trkpt lat="44.92776" lon="4.40286">
        <ele>545</ele>
        <time>2017-04-02T12:13:56.000Z</time>
      </trkpt>
      <trkpt lat="44.92784" lon="4.40296">
        <ele>543</ele>
        <time>2017-04-02T12:14:04.000Z</time>
      </trkpt>
      <trkpt lat="44.92793" lon="4.40306">
        <ele>547</ele>
        <time>2017-04-02T12:14:15.000Z</time>
      </trkpt>
      <trkpt lat="44.92799" lon="4.40316">
        <ele>549</ele>
        <time>2017-04-02T12:14:24.000Z</time>
      </trkpt>
      <trkpt lat="44.92807" lon="4.4033">
        <ele>548</ele>
        <time>2017-04-02T12:14:33.000Z</time>
      </trkpt>
      <trkpt lat="44.92815" lon="4.40343">
        <ele>549</ele>
        <time>2017-04-02T12:14:43.000Z</time>
      </trkpt>
      <trkpt lat="44.92822" lon="4.40355">
        <ele>548</ele>
        <time>2017-04-02T12:14:51.000Z</time>
      </trkpt>
      <trkpt lat="44.9283" lon="4.40366">
        <ele>548</ele>
        <time>2017-04-02T12:15:00.000Z</time>
      </trkpt>
      <trkpt lat="44.92839" lon="4.40376">
        <ele>548</ele>
        <time>2017-04-02T12:15:09.000Z</time>
      </trkpt>
      <trkpt lat="44.92849" lon="4.40381">
        <ele>549</ele>
        <time>2017-04-02T12:15:18.000Z</time>
      </trkpt>
      <trkpt lat="44.92859" lon="4.40385">
        <ele>549</ele>
        <time>2017-04-02T12:15:27.000Z</time>
      </trkpt>
      <trkpt lat="44.9287" lon="4.40388">
        <ele>551</ele>
        <time>2017-04-02T12:15:36.000Z</time>
      </trkpt>
      <trkpt lat="44.92881" lon="4.40393">
        <ele>550</ele>
        <time>2017-04-02T12:15:45.000Z</time>
      </trkpt>
      <trkpt lat="44.92894" lon="4.404">
        <ele>549</ele>
        <time>2017-04-02T12:15:56.000Z</time>
      </trkpt>
      <trkpt lat="44.92907" lon="4.40397">
        <ele>550</ele>
        <time>2017-04-02T12:16:07.000Z</time>
      </trkpt>
      <trkpt lat="44.92918" lon="4.40393">
        <ele>552</ele>
        <time>2017-04-02T12:16:16.000Z</time>
      </trkpt>
      <trkpt lat="44.92929" lon="4.40387">
        <ele>555</ele>
        <time>2017-04-02T12:16:25.000Z</time>
      </trkpt>
      <trkpt lat="44.92939" lon="4.40381">
        <ele>554</ele>
        <time>2017-04-02T12:16:34.000Z</time>
      </trkpt>
      <trkpt lat="44.9295" lon="4.40378">
        <ele>554</ele>
        <time>2017-04-02T12:16:43.000Z</time>
      </trkpt>
      <trkpt lat="44.92962" lon="4.40373">
        <ele>554</ele>
        <time>2017-04-02T12:16:52.000Z</time>
      </trkpt>
      <trkpt lat="44.92972" lon="4.40369">
        <ele>551</ele>
        <time>2017-04-02T12:16:59.000Z</time>
      </trkpt>
      <trkpt lat="44.92983" lon="4.40362">
        <ele>550</ele>
        <time>2017-04-02T12:17:08.000Z</time>
      </trkpt>
      <trkpt lat="44.92993" lon="4.40358">
        <ele>548</ele>
        <time>2017-04-02T12:17:17.000Z</time>
      </trkpt>
      <trkpt lat="44.93004" lon="4.40353">
        <ele>546</ele>
        <time>2017-04-02T12:17:26.000Z</time>
      </trkpt>
      <trkpt lat="44.93014" lon="4.40349">
        <ele>546</ele>
        <time>2017-04-02T12:17:34.000Z</time>
      </trkpt>
      <trkpt lat="44.93021" lon="4.40341">
        <ele>545</ele>
        <time>2017-04-02T12:17:43.000Z</time>
      </trkpt>
      <trkpt lat="44.93032" lon="4.40332">
        <ele>545</ele>
        <time>2017-04-02T12:17:55.000Z</time>
      </trkpt>
      <trkpt lat="44.93038" lon="4.40321">
        <ele>546</ele>
        <time>2017-04-02T12:18:04.000Z</time>
      </trkpt>
      <trkpt lat="44.93048" lon="4.40303">
        <ele>549</ele>
        <time>2017-04-02T12:18:18.000Z</time>
      </trkpt>
      <trkpt lat="44.93052" lon="4.40289">
        <ele>547</ele>
        <time>2017-04-02T12:18:27.000Z</time>
      </trkpt>
      <trkpt lat="44.9306" lon="4.40276">
        <ele>550</ele>
        <time>2017-04-02T12:18:36.000Z</time>
      </trkpt>
      <trkpt lat="44.93065" lon="4.40263">
        <ele>553</ele>
        <time>2017-04-02T12:18:45.000Z</time>
      </trkpt>
      <trkpt lat="44.93074" lon="4.40248">
        <ele>551</ele>
        <time>2017-04-02T12:18:54.000Z</time>
      </trkpt>
      <trkpt lat="44.93083" lon="4.40237">
        <ele>549</ele>
        <time>2017-04-02T12:19:03.000Z</time>
      </trkpt>
      <trkpt lat="44.93091" lon="4.40229">
        <ele>550</ele>
        <time>2017-04-02T12:19:09.000Z</time>
      </trkpt>
      <trkpt lat="44.93102" lon="4.40223">
        <ele>552</ele>
        <time>2017-04-02T12:19:18.000Z</time>
      </trkpt>
      <trkpt lat="44.93111" lon="4.4022">
        <ele>552</ele>
        <time>2017-04-02T12:19:24.000Z</time>
      </trkpt>
      <trkpt lat="44.93121" lon="4.40216">
        <ele>553</ele>
        <time>2017-04-02T12:19:31.000Z</time>
      </trkpt>
      <trkpt lat="44.9313" lon="4.40213">
        <ele>552</ele>
        <time>2017-04-02T12:19:38.000Z</time>
      </trkpt>
      <trkpt lat="44.93139" lon="4.40211">
        <ele>550</ele>
        <time>2017-04-02T12:19:46.000Z</time>
      </trkpt>
      <trkpt lat="44.93148" lon="4.4021">
        <ele>552</ele>
        <time>2017-04-02T12:19:55.000Z</time>
      </trkpt>
      <trkpt lat="44.9316" lon="4.40214">
        <ele>552</ele>
        <time>2017-04-02T12:20:06.000Z</time>
      </trkpt>
      <trkpt lat="44.93172" lon="4.40218">
        <ele>551</ele>
        <time>2017-04-02T12:20:15.000Z</time>
      </trkpt>
      <trkpt lat="44.93181" lon="4.40221">
        <ele>551</ele>
        <time>2017-04-02T12:20:21.000Z</time>
      </trkpt>
      <trkpt lat="44.9319" lon="4.40228">
        <ele>550</ele>
        <time>2017-04-02T12:20:29.000Z</time>
      </trkpt>
      <trkpt lat="44.932" lon="4.40235">
        <ele>549</ele>
        <time>2017-04-02T12:20:38.000Z</time>
      </trkpt>
      <trkpt lat="44.9321" lon="4.40243">
        <ele>552</ele>
        <time>2017-04-02T12:20:50.000Z</time>
      </trkpt>
      <trkpt lat="44.93219" lon="4.40257">
        <ele>556</ele>
        <time>2017-04-02T12:21:02.000Z</time>
      </trkpt>
      <trkpt lat="44.93227" lon="4.40271">
        <ele>551</ele>
        <time>2017-04-02T12:21:11.000Z</time>
      </trkpt>
      <trkpt lat="44.93232" lon="4.40282">
        <ele>555</ele>
        <time>2017-04-02T12:21:23.000Z</time>
      </trkpt>
      <trkpt lat="44.93235" lon="4.40295">
        <ele>555</ele>
        <time>2017-04-02T12:21:31.000Z</time>
      </trkpt>
      <trkpt lat="44.93243" lon="4.40303">
        <ele>557</ele>
        <time>2017-04-02T12:21:39.000Z</time>
      </trkpt>
      <trkpt lat="44.93249" lon="4.40314">
        <ele>556</ele>
        <time>2017-04-02T12:21:45.000Z</time>
      </trkpt>
      <trkpt lat="44.93255" lon="4.40327">
        <ele>556</ele>
        <time>2017-04-02T12:21:54.000Z</time>
      </trkpt>
      <trkpt lat="44.93261" lon="4.40336">
        <ele>552</ele>
        <time>2017-04-02T12:22:00.000Z</time>
      </trkpt>
      <trkpt lat="44.93266" lon="4.40348">
        <ele>551</ele>
        <time>2017-04-02T12:22:08.000Z</time>
      </trkpt>
      <trkpt lat="44.93276" lon="4.40358">
        <ele>551</ele>
        <time>2017-04-02T12:22:17.000Z</time>
      </trkpt>
      <trkpt lat="44.93284" lon="4.40372">
        <ele>544</ele>
        <time>2017-04-02T12:22:26.000Z</time>
      </trkpt>
      <trkpt lat="44.9329" lon="4.40383">
        <ele>543</ele>
        <time>2017-04-02T12:22:35.000Z</time>
      </trkpt>
      <trkpt lat="44.93302" lon="4.40395">
        <ele>541</ele>
        <time>2017-04-02T12:22:44.000Z</time>
      </trkpt>
      <trkpt lat="44.93312" lon="4.40403">
        <ele>544</ele>
        <time>2017-04-02T12:22:53.000Z</time>
      </trkpt>
      <trkpt lat="44.93321" lon="4.40412">
        <ele>544</ele>
        <time>2017-04-02T12:23:01.000Z</time>
      </trkpt>
      <trkpt lat="44.93329" lon="4.40423">
        <ele>546</ele>
        <time>2017-04-02T12:23:10.000Z</time>
      </trkpt>
      <trkpt lat="44.93337" lon="4.40436">
        <ele>543</ele>
        <time>2017-04-02T12:23:19.000Z</time>
      </trkpt>
      <trkpt lat="44.93345" lon="4.40447">
        <ele>540</ele>
        <time>2017-04-02T12:23:27.000Z</time>
      </trkpt>
      <trkpt lat="44.93354" lon="4.40459">
        <ele>538</ele>
        <time>2017-04-02T12:23:37.000Z</time>
      </trkpt>
      <trkpt lat="44.93362" lon="4.40464">
        <ele>542</ele>
        <time>2017-04-02T12:23:46.000Z</time>
      </trkpt>
      <trkpt lat="44.93376" lon="4.40478">
        <ele>544</ele>
        <time>2017-04-02T12:24:00.000Z</time>
      </trkpt>
      <trkpt lat="44.93385" lon="4.40483">
        <ele>548</ele>
        <time>2017-04-02T12:24:09.000Z</time>
      </trkpt>
      <trkpt lat="44.93393" lon="4.40495">
        <ele>544</ele>
        <time>2017-04-02T12:24:18.000Z</time>
      </trkpt>
      <trkpt lat="44.93401" lon="4.40497">
        <ele>550</ele>
        <time>2017-04-02T12:24:26.000Z</time>
      </trkpt>
      <trkpt lat="44.93411" lon="4.40501">
        <ele>551</ele>
        <time>2017-04-02T12:24:35.000Z</time>
      </trkpt>
      <trkpt lat="44.93415" lon="4.40513">
        <ele>549</ele>
        <time>2017-04-02T12:24:44.000Z</time>
      </trkpt>
      <trkpt lat="44.93424" lon="4.40513">
        <ele>552</ele>
        <time>2017-04-02T12:25:03.000Z</time>
      </trkpt>
      <trkpt lat="44.93435" lon="4.40513">
        <ele>553</ele>
        <time>2017-04-02T12:25:12.000Z</time>
      </trkpt>
      <trkpt lat="44.93445" lon="4.40515">
        <ele>552</ele>
        <time>2017-04-02T12:25:21.000Z</time>
      </trkpt>
      <trkpt lat="44.93455" lon="4.40512">
        <ele>551</ele>
        <time>2017-04-02T12:25:29.000Z</time>
      </trkpt>
      <trkpt lat="44.93465" lon="4.4051">
        <ele>551</ele>
        <time>2017-04-02T12:25:38.000Z</time>
      </trkpt>
      <trkpt lat="44.93481" lon="4.40508">
        <ele>551</ele>
        <time>2017-04-02T12:25:50.000Z</time>
      </trkpt>
      <trkpt lat="44.93493" lon="4.40504">
        <ele>552</ele>
        <time>2017-04-02T12:25:59.000Z</time>
      </trkpt>
      <trkpt lat="44.93511" lon="4.405">
        <ele>549</ele>
        <time>2017-04-02T12:26:12.000Z</time>
      </trkpt>
      <trkpt lat="44.9352" lon="4.40494">
        <ele>548</ele>
        <time>2017-04-02T12:26:21.000Z</time>
      </trkpt>
      <trkpt lat="44.9353" lon="4.40483">
        <ele>550</ele>
        <time>2017-04-02T12:26:32.000Z</time>
      </trkpt>
      <trkpt lat="44.93539" lon="4.40474">
        <ele>549</ele>
        <time>2017-04-02T12:26:41.000Z</time>
      </trkpt>
      <trkpt lat="44.93547" lon="4.40463">
        <ele>547</ele>
        <time>2017-04-02T12:26:49.000Z</time>
      </trkpt>
      <trkpt lat="44.93554" lon="4.4045">
        <ele>547</ele>
        <time>2017-04-02T12:26:58.000Z</time>
      </trkpt>
      <trkpt lat="44.93559" lon="4.40438">
        <ele>550</ele>
        <time>2017-04-02T12:27:07.000Z</time>
      </trkpt>
      <trkpt lat="44.93564" lon="4.40422">
        <ele>550</ele>
        <time>2017-04-02T12:27:19.000Z</time>
      </trkpt>
      <trkpt lat="44.93572" lon="4.40411">
        <ele>551</ele>
        <time>2017-04-02T12:27:28.000Z</time>
      </trkpt>
      <trkpt lat="44.93579" lon="4.40398">
        <ele>553</ele>
        <time>2017-04-02T12:27:49.000Z</time>
      </trkpt>
      <trkpt lat="44.93584" lon="4.40384">
        <ele>552</ele>
        <time>2017-04-02T12:27:59.000Z</time>
      </trkpt>
      <trkpt lat="44.93589" lon="4.40371">
        <ele>553</ele>
        <time>2017-04-02T12:28:08.000Z</time>
      </trkpt>
      <trkpt lat="44.93593" lon="4.40356">
        <ele>550</ele>
        <time>2017-04-02T12:28:17.000Z</time>
      </trkpt>
      <trkpt lat="44.93594" lon="4.40342">
        <ele>556</ele>
        <time>2017-04-02T12:28:29.000Z</time>
      </trkpt>
      <trkpt lat="44.93597" lon="4.40324">
        <ele>553</ele>
        <time>2017-04-02T12:28:41.000Z</time>
      </trkpt>
      <trkpt lat="44.93599" lon="4.40311">
        <ele>548</ele>
        <time>2017-04-02T12:29:14.000Z</time>
      </trkpt>
      <trkpt lat="44.93598" lon="4.40298">
        <ele>551</ele>
        <time>2017-04-02T12:29:23.000Z</time>
      </trkpt>
      <trkpt lat="44.93597" lon="4.40285">
        <ele>552</ele>
        <time>2017-04-02T12:29:32.000Z</time>
      </trkpt>
      <trkpt lat="44.93599" lon="4.40269">
        <ele>550</ele>
        <time>2017-04-02T12:29:41.000Z</time>
      </trkpt>
      <trkpt lat="44.93601" lon="4.40255">
        <ele>555</ele>
        <time>2017-04-02T12:29:50.000Z</time>
      </trkpt>
      <trkpt lat="44.93603" lon="4.40239">
        <ele>549</ele>
        <time>2017-04-02T12:29:58.000Z</time>
      </trkpt>
      <trkpt lat="44.93605" lon="4.40224">
        <ele>549</ele>
        <time>2017-04-02T12:30:06.000Z</time>
      </trkpt>
      <trkpt lat="44.93607" lon="4.40208">
        <ele>548</ele>
        <time>2017-04-02T12:30:15.000Z</time>
      </trkpt>
      <trkpt lat="44.93612" lon="4.40192">
        <ele>549</ele>
        <time>2017-04-02T12:30:26.000Z</time>
      </trkpt>
      <trkpt lat="44.93618" lon="4.40178">
        <ele>548</ele>
        <time>2017-04-02T12:30:35.000Z</time>
      </trkpt>
      <trkpt lat="44.93622" lon="4.40166">
        <ele>550</ele>
        <time>2017-04-02T12:30:43.000Z</time>
      </trkpt>
      <trkpt lat="44.9363" lon="4.40154">
        <ele>552</ele>
        <time>2017-04-02T12:30:52.000Z</time>
      </trkpt>
      <trkpt lat="44.93637" lon="4.40143">
        <ele>553</ele>
        <time>2017-04-02T12:31:01.000Z</time>
      </trkpt>
      <trkpt lat="44.93653" lon="4.4013">
        <ele>559</ele>
        <time>2017-04-02T12:31:18.000Z</time>
      </trkpt>
      <trkpt lat="44.93663" lon="4.40125">
        <ele>557</ele>
        <time>2017-04-02T12:31:27.000Z</time>
      </trkpt>
      <trkpt lat="44.93676" lon="4.4012">
        <ele>558</ele>
        <time>2017-04-02T12:31:39.000Z</time>
      </trkpt>
      <trkpt lat="44.93685" lon="4.40116">
        <ele>552</ele>
        <time>2017-04-02T12:31:47.000Z</time>
      </trkpt>
      <trkpt lat="44.93696" lon="4.40116">
        <ele>548</ele>
        <time>2017-04-02T12:31:55.000Z</time>
      </trkpt>
      <trkpt lat="44.93706" lon="4.40116">
        <ele>548</ele>
        <time>2017-04-02T12:32:04.000Z</time>
      </trkpt>
      <trkpt lat="44.93716" lon="4.40119">
        <ele>553</ele>
        <time>2017-04-02T12:32:13.000Z</time>
      </trkpt>
      <trkpt lat="44.93725" lon="4.40126">
        <ele>553</ele>
        <time>2017-04-02T12:32:21.000Z</time>
      </trkpt>
      <trkpt lat="44.93763" lon="4.40132">
        <ele>556</ele>
        <time>2017-04-02T12:33:04.000Z</time>
      </trkpt>
      <trkpt lat="44.93782" lon="4.40139">
        <ele>557</ele>
        <time>2017-04-02T12:33:07.000Z</time>
      </trkpt>
      <trkpt lat="44.93801" lon="4.40143">
        <ele>558</ele>
        <time>2017-04-02T12:33:22.000Z</time>
      </trkpt>
      <trkpt lat="44.93811" lon="4.4014">
        <ele>561</ele>
        <time>2017-04-02T12:33:30.000Z</time>
      </trkpt>
      <trkpt lat="44.9382" lon="4.4014">
        <ele>561</ele>
        <time>2017-04-02T12:33:37.000Z</time>
      </trkpt>
      <trkpt lat="44.93831" lon="4.40142">
        <ele>559</ele>
        <time>2017-04-02T12:33:45.000Z</time>
      </trkpt>
      <trkpt lat="44.9384" lon="4.40142">
        <ele>558</ele>
        <time>2017-04-02T12:33:53.000Z</time>
      </trkpt>
      <trkpt lat="44.9385" lon="4.40138">
        <ele>559</ele>
        <time>2017-04-02T12:34:02.000Z</time>
      </trkpt>
      <trkpt lat="44.9386" lon="4.4013">
        <ele>559</ele>
        <time>2017-04-02T12:34:11.000Z</time>
      </trkpt>
      <trkpt lat="44.9387" lon="4.40122">
        <ele>557</ele>
        <time>2017-04-02T12:34:20.000Z</time>
      </trkpt>
      <trkpt lat="44.93877" lon="4.40112">
        <ele>556</ele>
        <time>2017-04-02T12:34:28.000Z</time>
      </trkpt>
      <trkpt lat="44.93885" lon="4.40102">
        <ele>553</ele>
        <time>2017-04-02T12:34:37.000Z</time>
      </trkpt>
      <trkpt lat="44.93893" lon="4.40088">
        <ele>550</ele>
        <time>2017-04-02T12:34:46.000Z</time>
      </trkpt>
      <trkpt lat="44.939" lon="4.40077">
        <ele>548</ele>
        <time>2017-04-02T12:34:55.000Z</time>
      </trkpt>
      <trkpt lat="44.93907" lon="4.40065">
        <ele>547</ele>
        <time>2017-04-02T12:35:04.000Z</time>
      </trkpt>
      <trkpt lat="44.93913" lon="4.40051">
        <ele>547</ele>
        <time>2017-04-02T12:35:13.000Z</time>
      </trkpt>
      <trkpt lat="44.93924" lon="4.40033">
        <ele>547</ele>
        <time>2017-04-02T12:35:26.000Z</time>
      </trkpt>
      <trkpt lat="44.93929" lon="4.40021">
        <ele>549</ele>
        <time>2017-04-02T12:35:34.000Z</time>
      </trkpt>
      <trkpt lat="44.93933" lon="4.40008">
        <ele>550</ele>
        <time>2017-04-02T12:35:43.000Z</time>
      </trkpt>
      <trkpt lat="44.93937" lon="4.39995">
        <ele>551</ele>
        <time>2017-04-02T12:35:52.000Z</time>
      </trkpt>
      <trkpt lat="44.93942" lon="4.39978">
        <ele>551</ele>
        <time>2017-04-02T12:36:03.000Z</time>
      </trkpt>
      <trkpt lat="44.93946" lon="4.39962">
        <ele>551</ele>
        <time>2017-04-02T12:36:12.000Z</time>
      </trkpt>
      <trkpt lat="44.93947" lon="4.39949">
        <ele>552</ele>
        <time>2017-04-02T12:36:19.000Z</time>
      </trkpt>
      <trkpt lat="44.9395" lon="4.39935">
        <ele>552</ele>
        <time>2017-04-02T12:36:27.000Z</time>
      </trkpt>
      <trkpt lat="44.93952" lon="4.39918">
        <ele>551</ele>
        <time>2017-04-02T12:36:36.000Z</time>
      </trkpt>
      <trkpt lat="44.93953" lon="4.39905">
        <ele>551</ele>
        <time>2017-04-02T12:36:43.000Z</time>
      </trkpt>
      <trkpt lat="44.93958" lon="4.39892">
        <ele>544</ele>
        <time>2017-04-02T12:36:52.000Z</time>
      </trkpt>
      <trkpt lat="44.93958" lon="4.39877">
        <ele>545</ele>
        <time>2017-04-02T12:37:00.000Z</time>
      </trkpt>
      <trkpt lat="44.93957" lon="4.39861">
        <ele>546</ele>
        <time>2017-04-02T12:37:09.000Z</time>
      </trkpt>
      <trkpt lat="44.93957" lon="4.39845">
        <ele>548</ele>
        <time>2017-04-02T12:37:18.000Z</time>
      </trkpt>
      <trkpt lat="44.93957" lon="4.39831">
        <ele>549</ele>
        <time>2017-04-02T12:37:26.000Z</time>
      </trkpt>
      <trkpt lat="44.93956" lon="4.39817">
        <ele>549</ele>
        <time>2017-04-02T12:37:34.000Z</time>
      </trkpt>
      <trkpt lat="44.93955" lon="4.398">
        <ele>549</ele>
        <time>2017-04-02T12:37:44.000Z</time>
      </trkpt>
      <trkpt lat="44.93956" lon="4.39784">
        <ele>550</ele>
        <time>2017-04-02T12:37:53.000Z</time>
      </trkpt>
      <trkpt lat="44.93956" lon="4.39768">
        <ele>551</ele>
        <time>2017-04-02T12:38:02.000Z</time>
      </trkpt>
      <trkpt lat="44.93963" lon="4.39778">
        <ele>552</ele>
        <time>2017-04-02T12:43:36.000Z</time>
      </trkpt>
      <trkpt lat="44.93966" lon="4.39793">
        <ele>552</ele>
        <time>2017-04-02T12:43:46.000Z</time>
      </trkpt>
      <trkpt lat="44.93967" lon="4.39806">
        <ele>552</ele>
        <time>2017-04-02T12:43:54.000Z</time>
      </trkpt>
      <trkpt lat="44.93969" lon="4.39818">
        <ele>551</ele>
        <time>2017-04-02T12:44:01.000Z</time>
      </trkpt>
      <trkpt lat="44.93971" lon="4.39836">
        <ele>551</ele>
        <time>2017-04-02T12:44:12.000Z</time>
      </trkpt>
      <trkpt lat="44.93971" lon="4.3986">
        <ele>552</ele>
        <time>2017-04-02T12:44:26.000Z</time>
      </trkpt>
      <trkpt lat="44.93972" lon="4.39874">
        <ele>553</ele>
        <time>2017-04-02T12:44:35.000Z</time>
      </trkpt>
      <trkpt lat="44.93973" lon="4.39891">
        <ele>554</ele>
        <time>2017-04-02T12:44:45.000Z</time>
      </trkpt>
      <trkpt lat="44.93972" lon="4.39906">
        <ele>553</ele>
        <time>2017-04-02T12:44:53.000Z</time>
      </trkpt>
      <trkpt lat="44.93972" lon="4.39923">
        <ele>553</ele>
        <time>2017-04-02T12:45:02.000Z</time>
      </trkpt>
      <trkpt lat="44.93974" lon="4.39939">
        <ele>554</ele>
        <time>2017-04-02T12:45:11.000Z</time>
      </trkpt>
      <trkpt lat="44.93977" lon="4.39953">
        <ele>555</ele>
        <time>2017-04-02T12:45:20.000Z</time>
      </trkpt>
      <trkpt lat="44.93983" lon="4.39969">
        <ele>556</ele>
        <time>2017-04-02T12:45:30.000Z</time>
      </trkpt>
      <trkpt lat="44.93988" lon="4.39983">
        <ele>556</ele>
        <time>2017-04-02T12:45:39.000Z</time>
      </trkpt>
      <trkpt lat="44.93995" lon="4.39996">
        <ele>557</ele>
        <time>2017-04-02T12:45:49.000Z</time>
      </trkpt>
      <trkpt lat="44.94002" lon="4.40004">
        <ele>558</ele>
        <time>2017-04-02T12:45:58.000Z</time>
      </trkpt>
      <trkpt lat="44.9401" lon="4.40014">
        <ele>560</ele>
        <time>2017-04-02T12:46:08.000Z</time>
      </trkpt>
      <trkpt lat="44.94008" lon="4.40027">
        <ele>564</ele>
        <time>2017-04-02T12:46:23.000Z</time>
      </trkpt>
      <trkpt lat="44.94001" lon="4.40042">
        <ele>563</ele>
        <time>2017-04-02T12:46:34.000Z</time>
      </trkpt>
      <trkpt lat="44.93994" lon="4.40051">
        <ele>560</ele>
        <time>2017-04-02T12:46:44.000Z</time>
      </trkpt>
      <trkpt lat="44.93984" lon="4.4006">
        <ele>563</ele>
        <time>2017-04-02T12:46:56.000Z</time>
      </trkpt>
      <trkpt lat="44.93981" lon="4.40075">
        <ele>566</ele>
        <time>2017-04-02T12:47:05.000Z</time>
      </trkpt>
      <trkpt lat="44.93979" lon="4.40089">
        <ele>566</ele>
        <time>2017-04-02T12:47:15.000Z</time>
      </trkpt>
      <trkpt lat="44.93972" lon="4.40104">
        <ele>566</ele>
        <time>2017-04-02T12:47:27.000Z</time>
      </trkpt>
      <trkpt lat="44.93963" lon="4.40113">
        <ele>567</ele>
        <time>2017-04-02T12:47:39.000Z</time>
      </trkpt>
      <trkpt lat="44.93955" lon="4.4012">
        <ele>569</ele>
        <time>2017-04-02T12:47:48.000Z</time>
      </trkpt>
      <trkpt lat="44.93945" lon="4.40123">
        <ele>573</ele>
        <time>2017-04-02T12:48:00.000Z</time>
      </trkpt>
      <trkpt lat="44.93935" lon="4.40127">
        <ele>574</ele>
        <time>2017-04-02T12:48:09.000Z</time>
      </trkpt>
      <trkpt lat="44.93927" lon="4.40137">
        <ele>575</ele>
        <time>2017-04-02T12:48:21.000Z</time>
      </trkpt>
      <trkpt lat="44.93919" lon="4.40149">
        <ele>576</ele>
        <time>2017-04-02T12:48:33.000Z</time>
      </trkpt>
      <trkpt lat="44.93912" lon="4.40157">
        <ele>578</ele>
        <time>2017-04-02T12:48:48.000Z</time>
      </trkpt>
      <trkpt lat="44.93905" lon="4.40168">
        <ele>578</ele>
        <time>2017-04-02T12:49:03.000Z</time>
      </trkpt>
      <trkpt lat="44.93898" lon="4.40177">
        <ele>580</ele>
        <time>2017-04-02T12:49:15.000Z</time>
      </trkpt>
      <trkpt lat="44.93889" lon="4.40184">
        <ele>582</ele>
        <time>2017-04-02T12:49:29.000Z</time>
      </trkpt>
      <trkpt lat="44.93879" lon="4.40186">
        <ele>586</ele>
        <time>2017-04-02T12:49:46.000Z</time>
      </trkpt>
      <trkpt lat="44.93867" lon="4.40185">
        <ele>589</ele>
        <time>2017-04-02T12:50:01.000Z</time>
      </trkpt>
      <trkpt lat="44.93856" lon="4.40183">
        <ele>593</ele>
        <time>2017-04-02T12:50:15.000Z</time>
      </trkpt>
      <trkpt lat="44.93847" lon="4.40184">
        <ele>590</ele>
        <time>2017-04-02T12:50:27.000Z</time>
      </trkpt>
      <trkpt lat="44.93838" lon="4.40178">
        <ele>592</ele>
        <time>2017-04-02T12:50:39.000Z</time>
      </trkpt>
      <trkpt lat="44.93836" lon="4.40193">
        <ele>591</ele>
        <time>2017-04-02T12:51:05.000Z</time>
      </trkpt>
      <trkpt lat="44.93828" lon="4.40201">
        <ele>594</ele>
        <time>2017-04-02T12:51:23.000Z</time>
      </trkpt>
      <trkpt lat="44.93811" lon="4.40211">
        <ele>600</ele>
        <time>2017-04-02T12:51:51.000Z</time>
      </trkpt>
      <trkpt lat="44.93802" lon="4.40218">
        <ele>602</ele>
        <time>2017-04-02T12:52:08.000Z</time>
      </trkpt>
      <trkpt lat="44.93792" lon="4.40226">
        <ele>605</ele>
        <time>2017-04-02T12:52:23.000Z</time>
      </trkpt>
      <trkpt lat="44.93783" lon="4.40226">
        <ele>608</ele>
        <time>2017-04-02T12:52:40.000Z</time>
      </trkpt>
      <trkpt lat="44.93774" lon="4.40231">
        <ele>609</ele>
        <time>2017-04-02T12:52:55.000Z</time>
      </trkpt>
      <trkpt lat="44.93763" lon="4.40235">
        <ele>615</ele>
        <time>2017-04-02T12:53:12.000Z</time>
      </trkpt>
      <trkpt lat="44.93749" lon="4.40232">
        <ele>619</ele>
        <time>2017-04-02T12:53:34.000Z</time>
      </trkpt>
      <trkpt lat="44.9374" lon="4.40241">
        <ele>618</ele>
        <time>2017-04-02T12:53:48.000Z</time>
      </trkpt>
      <trkpt lat="44.93733" lon="4.4025">
        <ele>619</ele>
        <time>2017-04-02T12:54:02.000Z</time>
      </trkpt>
      <trkpt lat="44.93727" lon="4.40261">
        <ele>622</ele>
        <time>2017-04-02T12:54:20.000Z</time>
      </trkpt>
      <trkpt lat="44.93726" lon="4.40274">
        <ele>626</ele>
        <time>2017-04-02T12:54:54.000Z</time>
      </trkpt>
      <trkpt lat="44.93735" lon="4.40281">
        <ele>629</ele>
        <time>2017-04-02T12:55:23.000Z</time>
      </trkpt>
      <trkpt lat="44.93745" lon="4.40277">
        <ele>631</ele>
        <time>2017-04-02T12:55:40.000Z</time>
      </trkpt>
      <trkpt lat="44.93741" lon="4.40289">
        <ele>635</ele>
        <time>2017-04-02T12:58:17.000Z</time>
      </trkpt>
      <trkpt lat="44.93739" lon="4.40302">
        <ele>638</ele>
        <time>2017-04-02T12:58:31.000Z</time>
      </trkpt>
      <trkpt lat="44.93737" lon="4.40315">
        <ele>640</ele>
        <time>2017-04-02T12:58:43.000Z</time>
      </trkpt>
      <trkpt lat="44.93745" lon="4.40324">
        <ele>642</ele>
        <time>2017-04-02T12:59:04.000Z</time>
      </trkpt>
      <trkpt lat="44.93749" lon="4.40337">
        <ele>644</ele>
        <time>2017-04-02T12:59:17.000Z</time>
      </trkpt>
      <trkpt lat="44.93753" lon="4.40352">
        <ele>645</ele>
        <time>2017-04-02T12:59:31.000Z</time>
      </trkpt>
      <trkpt lat="44.93754" lon="4.40365">
        <ele>648</ele>
        <time>2017-04-02T12:59:44.000Z</time>
      </trkpt>
      <trkpt lat="44.93757" lon="4.40378">
        <ele>651</ele>
        <time>2017-04-02T12:59:59.000Z</time>
      </trkpt>
      <trkpt lat="44.93766" lon="4.40381">
        <ele>653</ele>
        <time>2017-04-02T13:00:14.000Z</time>
      </trkpt>
      <trkpt lat="44.9377" lon="4.40394">
        <ele>654</ele>
        <time>2017-04-02T13:00:28.000Z</time>
      </trkpt>
      <trkpt lat="44.93776" lon="4.40404">
        <ele>658</ele>
        <time>2017-04-02T13:00:52.000Z</time>
      </trkpt>
      <trkpt lat="44.93777" lon="4.40417">
        <ele>659</ele>
        <time>2017-04-02T13:01:04.000Z</time>
      </trkpt>
      <trkpt lat="44.93777" lon="4.40429">
        <ele>663</ele>
        <time>2017-04-02T13:01:19.000Z</time>
      </trkpt>
      <trkpt lat="44.93774" lon="4.40444">
        <ele>667</ele>
        <time>2017-04-02T13:01:38.000Z</time>
      </trkpt>
      <trkpt lat="44.93762" lon="4.40458">
        <ele>674</ele>
        <time>2017-04-02T13:02:03.000Z</time>
      </trkpt>
      <trkpt lat="44.93757" lon="4.40476">
        <ele>673</ele>
        <time>2017-04-02T13:02:29.000Z</time>
      </trkpt>
      <trkpt lat="44.93756" lon="4.40488">
        <ele>674</ele>
        <time>2017-04-02T13:02:40.000Z</time>
      </trkpt>
      <trkpt lat="44.9375" lon="4.405">
        <ele>676</ele>
        <time>2017-04-02T13:02:55.000Z</time>
      </trkpt>
      <trkpt lat="44.93739" lon="4.40502">
        <ele>682</ele>
        <time>2017-04-02T13:03:15.000Z</time>
      </trkpt>
      <trkpt lat="44.93733" lon="4.40512">
        <ele>683</ele>
        <time>2017-04-02T13:06:13.000Z</time>
      </trkpt>
      <trkpt lat="44.93741" lon="4.40517">
        <ele>684</ele>
        <time>2017-04-02T13:06:53.000Z</time>
      </trkpt>
      <trkpt lat="44.93746" lon="4.40529">
        <ele>687</ele>
        <time>2017-04-02T13:07:08.000Z</time>
      </trkpt>
      <trkpt lat="44.93749" lon="4.40546">
        <ele>688</ele>
        <time>2017-04-02T13:07:24.000Z</time>
      </trkpt>
      <trkpt lat="44.9374" lon="4.40552">
        <ele>695</ele>
        <time>2017-04-02T13:07:40.000Z</time>
      </trkpt>
      <trkpt lat="44.93735" lon="4.40563">
        <ele>699</ele>
        <time>2017-04-02T13:07:58.000Z</time>
      </trkpt>
      <trkpt lat="44.93733" lon="4.40577">
        <ele>696</ele>
        <time>2017-04-02T13:08:07.000Z</time>
      </trkpt>
      <trkpt lat="44.93729" lon="4.40591">
        <ele>700</ele>
        <time>2017-04-02T13:08:20.000Z</time>
      </trkpt>
      <trkpt lat="44.93726" lon="4.40607">
        <ele>702</ele>
        <time>2017-04-02T13:08:32.000Z</time>
      </trkpt>
      <trkpt lat="44.93724" lon="4.40622">
        <ele>703</ele>
        <time>2017-04-02T13:08:44.000Z</time>
      </trkpt>
      <trkpt lat="44.93723" lon="4.40636">
        <ele>702</ele>
        <time>2017-04-02T13:08:56.000Z</time>
      </trkpt>
      <trkpt lat="44.93719" lon="4.40651">
        <ele>702</ele>
        <time>2017-04-02T13:09:05.000Z</time>
      </trkpt>
      <trkpt lat="44.9372" lon="4.40665">
        <ele>699</ele>
        <time>2017-04-02T13:09:20.000Z</time>
      </trkpt>
      <trkpt lat="44.9372" lon="4.4068">
        <ele>700</ele>
        <time>2017-04-02T13:09:34.000Z</time>
      </trkpt>
      <trkpt lat="44.93719" lon="4.40694">
        <ele>703</ele>
        <time>2017-04-02T13:09:49.000Z</time>
      </trkpt>
      <trkpt lat="44.93717" lon="4.40707">
        <ele>705</ele>
        <time>2017-04-02T13:10:05.000Z</time>
      </trkpt>
      <trkpt lat="44.93715" lon="4.4072">
        <ele>704</ele>
        <time>2017-04-02T13:10:15.000Z</time>
      </trkpt>
      <trkpt lat="44.93712" lon="4.40734">
        <ele>706</ele>
        <time>2017-04-02T13:10:26.000Z</time>
      </trkpt>
      <trkpt lat="44.9371" lon="4.40749">
        <ele>707</ele>
        <time>2017-04-02T13:10:36.000Z</time>
      </trkpt>
      <trkpt lat="44.93711" lon="4.40767">
        <ele>706</ele>
        <time>2017-04-02T13:10:49.000Z</time>
      </trkpt>
      <trkpt lat="44.93711" lon="4.40784">
        <ele>707</ele>
        <time>2017-04-02T13:11:03.000Z</time>
      </trkpt>
      <trkpt lat="44.93713" lon="4.40811">
        <ele>711</ele>
        <time>2017-04-02T13:11:25.000Z</time>
      </trkpt>
      <trkpt lat="44.93717" lon="4.40823">
        <ele>708</ele>
        <time>2017-04-02T13:11:39.000Z</time>
      </trkpt>
      <trkpt lat="44.93729" lon="4.40833">
        <ele>712</ele>
        <time>2017-04-02T13:12:33.000Z</time>
      </trkpt>
      <trkpt lat="44.93738" lon="4.40842">
        <ele>717</ele>
        <time>2017-04-02T13:12:48.000Z</time>
      </trkpt>
      <trkpt lat="44.93741" lon="4.40858">
        <ele>720</ele>
        <time>2017-04-02T13:13:04.000Z</time>
      </trkpt>
      <trkpt lat="44.93742" lon="4.40871">
        <ele>724</ele>
        <time>2017-04-02T13:13:15.000Z</time>
      </trkpt>
      <trkpt lat="44.93744" lon="4.40883">
        <ele>726</ele>
        <time>2017-04-02T13:13:27.000Z</time>
      </trkpt>
      <trkpt lat="44.93744" lon="4.40896">
        <ele>727</ele>
        <time>2017-04-02T13:13:41.000Z</time>
      </trkpt>
      <trkpt lat="44.9374" lon="4.4091">
        <ele>727</ele>
        <time>2017-04-02T13:13:53.000Z</time>
      </trkpt>
      <trkpt lat="44.93736" lon="4.40924">
        <ele>726</ele>
        <time>2017-04-02T13:14:08.000Z</time>
      </trkpt>
      <trkpt lat="44.93733" lon="4.40939">
        <ele>726</ele>
        <time>2017-04-02T13:14:20.000Z</time>
      </trkpt>
      <trkpt lat="44.93729" lon="4.40951">
        <ele>725</ele>
        <time>2017-04-02T13:14:37.000Z</time>
      </trkpt>
      <trkpt lat="44.9372" lon="4.4096">
        <ele>729</ele>
        <time>2017-04-02T13:14:52.000Z</time>
      </trkpt>
      <trkpt lat="44.9371" lon="4.40967">
        <ele>729</ele>
        <time>2017-04-02T13:15:05.000Z</time>
      </trkpt>
      <trkpt lat="44.937" lon="4.40974">
        <ele>730</ele>
        <time>2017-04-02T13:15:16.000Z</time>
      </trkpt>
      <trkpt lat="44.93692" lon="4.40985">
        <ele>731</ele>
        <time>2017-04-02T13:15:31.000Z</time>
      </trkpt>
      <trkpt lat="44.93689" lon="4.40998">
        <ele>730</ele>
        <time>2017-04-02T13:15:42.000Z</time>
      </trkpt>
      <trkpt lat="44.93685" lon="4.41013">
        <ele>730</ele>
        <time>2017-04-02T13:15:53.000Z</time>
      </trkpt>
      <trkpt lat="44.93681" lon="4.41028">
        <ele>731</ele>
        <time>2017-04-02T13:16:05.000Z</time>
      </trkpt>
      <trkpt lat="44.93679" lon="4.41041">
        <ele>731</ele>
        <time>2017-04-02T13:16:14.000Z</time>
      </trkpt>
      <trkpt lat="44.93675" lon="4.41053">
        <ele>733</ele>
        <time>2017-04-02T13:16:23.000Z</time>
      </trkpt>
      <trkpt lat="44.9367" lon="4.41064">
        <ele>734</ele>
        <time>2017-04-02T13:16:32.000Z</time>
      </trkpt>
      <trkpt lat="44.93663" lon="4.41075">
        <ele>733</ele>
        <time>2017-04-02T13:16:44.000Z</time>
      </trkpt>
      <trkpt lat="44.93658" lon="4.41088">
        <ele>735</ele>
        <time>2017-04-02T13:16:56.000Z</time>
      </trkpt>
      <trkpt lat="44.93655" lon="4.41102">
        <ele>735</ele>
        <time>2017-04-02T13:17:05.000Z</time>
      </trkpt>
      <trkpt lat="44.93656" lon="4.41116">
        <ele>735</ele>
        <time>2017-04-02T13:17:14.000Z</time>
      </trkpt>
      <trkpt lat="44.93654" lon="4.41129">
        <ele>735</ele>
        <time>2017-04-02T13:17:24.000Z</time>
      </trkpt>
      <trkpt lat="44.93652" lon="4.41142">
        <ele>733</ele>
        <time>2017-04-02T13:18:29.000Z</time>
      </trkpt>
      <trkpt lat="44.93649" lon="4.41158">
        <ele>734</ele>
        <time>2017-04-02T13:18:41.000Z</time>
      </trkpt>
      <trkpt lat="44.93647" lon="4.41171">
        <ele>734</ele>
        <time>2017-04-02T13:18:59.000Z</time>
      </trkpt>
      <trkpt lat="44.93649" lon="4.41184">
        <ele>743</ele>
        <time>2017-04-02T13:25:21.000Z</time>
      </trkpt>
      <trkpt lat="44.93655" lon="4.41195">
        <ele>741</ele>
        <time>2017-04-02T13:25:35.000Z</time>
      </trkpt>
      <trkpt lat="44.93658" lon="4.41211">
        <ele>739</ele>
        <time>2017-04-02T13:25:47.000Z</time>
      </trkpt>
      <trkpt lat="44.93662" lon="4.41223">
        <ele>738</ele>
        <time>2017-04-02T13:25:55.000Z</time>
      </trkpt>
      <trkpt lat="44.93665" lon="4.41237">
        <ele>742</ele>
        <time>2017-04-02T13:26:07.000Z</time>
      </trkpt>
      <trkpt lat="44.93663" lon="4.4125">
        <ele>746</ele>
        <time>2017-04-02T13:26:16.000Z</time>
      </trkpt>
      <trkpt lat="44.93663" lon="4.41263">
        <ele>748</ele>
        <time>2017-04-02T13:26:25.000Z</time>
      </trkpt>
      <trkpt lat="44.93669" lon="4.41277">
        <ele>740</ele>
        <time>2017-04-02T13:26:41.000Z</time>
      </trkpt>
      <trkpt lat="44.93665" lon="4.41308">
        <ele>742</ele>
        <time>2017-04-02T13:27:00.000Z</time>
      </trkpt>
      <trkpt lat="44.93655" lon="4.41358">
        <ele>740</ele>
        <time>2017-04-02T13:27:46.000Z</time>
      </trkpt>
      <trkpt lat="44.93655" lon="4.41371">
        <ele>741</ele>
        <time>2017-04-02T13:27:57.000Z</time>
      </trkpt>
      <trkpt lat="44.93655" lon="4.41386">
        <ele>732</ele>
        <time>2017-04-02T13:28:12.000Z</time>
      </trkpt>
      <trkpt lat="44.93657" lon="4.41399">
        <ele>729</ele>
        <time>2017-04-02T13:28:21.000Z</time>
      </trkpt>
      <trkpt lat="44.93659" lon="4.41412">
        <ele>729</ele>
        <time>2017-04-02T13:28:29.000Z</time>
      </trkpt>
      <trkpt lat="44.93658" lon="4.41425">
        <ele>731</ele>
        <time>2017-04-02T13:28:44.000Z</time>
      </trkpt>
      <trkpt lat="44.93649" lon="4.41429">
        <ele>734</ele>
        <time>2017-04-02T13:29:03.000Z</time>
      </trkpt>
      <trkpt lat="44.93636" lon="4.41439">
        <ele>730</ele>
        <time>2017-04-02T13:29:24.000Z</time>
      </trkpt>
      <trkpt lat="44.93623" lon="4.41441">
        <ele>737</ele>
        <time>2017-04-02T13:29:56.000Z</time>
      </trkpt>
      <trkpt lat="44.93614" lon="4.41437">
        <ele>734</ele>
        <time>2017-04-02T13:30:04.000Z</time>
      </trkpt>
      <trkpt lat="44.93605" lon="4.41447">
        <ele>728</ele>
        <time>2017-04-02T13:30:09.000Z</time>
      </trkpt>
      <trkpt lat="44.93597" lon="4.4144">
        <ele>728</ele>
        <time>2017-04-02T13:30:28.000Z</time>
      </trkpt>
      <trkpt lat="44.93584" lon="4.4144">
        <ele>731</ele>
        <time>2017-04-02T13:30:42.000Z</time>
      </trkpt>
      <trkpt lat="44.93575" lon="4.41436">
        <ele>727</ele>
        <time>2017-04-02T13:30:54.000Z</time>
      </trkpt>
      <trkpt lat="44.93566" lon="4.41431">
        <ele>726</ele>
        <time>2017-04-02T13:31:10.000Z</time>
      </trkpt>
      <trkpt lat="44.93556" lon="4.41426">
        <ele>726</ele>
        <time>2017-04-02T13:31:25.000Z</time>
      </trkpt>
      <trkpt lat="44.93546" lon="4.4142">
        <ele>730</ele>
        <time>2017-04-02T13:31:44.000Z</time>
      </trkpt>
      <trkpt lat="44.93538" lon="4.41413">
        <ele>729</ele>
        <time>2017-04-02T13:31:56.000Z</time>
      </trkpt>
      <trkpt lat="44.93528" lon="4.41408">
        <ele>728</ele>
        <time>2017-04-02T13:32:05.000Z</time>
      </trkpt>
      <trkpt lat="44.93514" lon="4.41404">
        <ele>729</ele>
        <time>2017-04-02T13:32:21.000Z</time>
      </trkpt>
      <trkpt lat="44.93504" lon="4.41408">
        <ele>732</ele>
        <time>2017-04-02T13:32:33.000Z</time>
      </trkpt>
      <trkpt lat="44.93495" lon="4.41415">
        <ele>734</ele>
        <time>2017-04-02T13:32:48.000Z</time>
      </trkpt>
      <trkpt lat="44.93485" lon="4.41422">
        <ele>736</ele>
        <time>2017-04-02T13:33:02.000Z</time>
      </trkpt>
      <trkpt lat="44.9348" lon="4.41433">
        <ele>735</ele>
        <time>2017-04-02T13:33:14.000Z</time>
      </trkpt>
      <trkpt lat="44.9347" lon="4.41441">
        <ele>731</ele>
        <time>2017-04-02T13:33:30.000Z</time>
      </trkpt>
      <trkpt lat="44.93457" lon="4.41433">
        <ele>732</ele>
        <time>2017-04-02T13:33:46.000Z</time>
      </trkpt>
      <trkpt lat="44.9345" lon="4.41424">
        <ele>734</ele>
        <time>2017-04-02T13:33:57.000Z</time>
      </trkpt>
      <trkpt lat="44.93449" lon="4.41409">
        <ele>740</ele>
        <time>2017-04-02T13:34:09.000Z</time>
      </trkpt>
      <trkpt lat="44.93452" lon="4.41396">
        <ele>744</ele>
        <time>2017-04-02T13:34:20.000Z</time>
      </trkpt>
      <trkpt lat="44.93448" lon="4.41382">
        <ele>739</ele>
        <time>2017-04-02T13:34:35.000Z</time>
      </trkpt>
      <trkpt lat="44.93444" lon="4.41369">
        <ele>742</ele>
        <time>2017-04-02T13:34:48.000Z</time>
      </trkpt>
      <trkpt lat="44.9344" lon="4.41358">
        <ele>740</ele>
        <time>2017-04-02T13:34:56.000Z</time>
      </trkpt>
      <trkpt lat="44.93436" lon="4.41344">
        <ele>738</ele>
        <time>2017-04-02T13:35:05.000Z</time>
      </trkpt>
      <trkpt lat="44.93428" lon="4.41336">
        <ele>730</ele>
        <time>2017-04-02T13:35:14.000Z</time>
      </trkpt>
      <trkpt lat="44.93427" lon="4.41322">
        <ele>732</ele>
        <time>2017-04-02T13:35:28.000Z</time>
      </trkpt>
      <trkpt lat="44.93419" lon="4.4131">
        <ele>732</ele>
        <time>2017-04-02T13:35:40.000Z</time>
      </trkpt>
      <trkpt lat="44.93412" lon="4.41303">
        <ele>732</ele>
        <time>2017-04-02T13:35:52.000Z</time>
      </trkpt>
      <trkpt lat="44.93405" lon="4.41293">
        <ele>731</ele>
        <time>2017-04-02T13:36:02.000Z</time>
      </trkpt>
      <trkpt lat="44.93394" lon="4.41289">
        <ele>728</ele>
        <time>2017-04-02T13:36:27.000Z</time>
      </trkpt>
      <trkpt lat="44.9338" lon="4.4128">
        <ele>732</ele>
        <time>2017-04-02T13:36:42.000Z</time>
      </trkpt>
      <trkpt lat="44.93384" lon="4.41266">
        <ele>749</ele>
        <time>2017-04-02T13:37:07.000Z</time>
      </trkpt>
      <trkpt lat="44.93377" lon="4.41249">
        <ele>746</ele>
        <time>2017-04-02T13:37:26.000Z</time>
      </trkpt>
      <trkpt lat="44.93373" lon="4.41237">
        <ele>742</ele>
        <time>2017-04-02T13:37:37.000Z</time>
      </trkpt>
      <trkpt lat="44.93371" lon="4.41222">
        <ele>747</ele>
        <time>2017-04-02T13:37:53.000Z</time>
      </trkpt>
      <trkpt lat="44.93361" lon="4.41222">
        <ele>739</ele>
        <time>2017-04-02T13:37:56.000Z</time>
      </trkpt>
      <trkpt lat="44.93347" lon="4.41215">
        <ele>735</ele>
        <time>2017-04-02T13:38:06.000Z</time>
      </trkpt>
      <trkpt lat="44.93338" lon="4.41211">
        <ele>740</ele>
        <time>2017-04-02T13:38:20.000Z</time>
      </trkpt>
      <trkpt lat="44.93329" lon="4.41211">
        <ele>739</ele>
        <time>2017-04-02T13:38:32.000Z</time>
      </trkpt>
      <trkpt lat="44.9332" lon="4.41204">
        <ele>737</ele>
        <time>2017-04-02T13:38:47.000Z</time>
      </trkpt>
      <trkpt lat="44.93306" lon="4.41205">
        <ele>733</ele>
        <time>2017-04-02T13:39:03.000Z</time>
      </trkpt>
      <trkpt lat="44.93297" lon="4.41198">
        <ele>738</ele>
        <time>2017-04-02T13:39:18.000Z</time>
      </trkpt>
      <trkpt lat="44.93282" lon="4.41196">
        <ele>742</ele>
        <time>2017-04-02T13:39:43.000Z</time>
      </trkpt>
      <trkpt lat="44.93279" lon="4.41183">
        <ele>750</ele>
        <time>2017-04-02T13:39:56.000Z</time>
      </trkpt>
      <trkpt lat="44.93277" lon="4.4117">
        <ele>750</ele>
        <time>2017-04-02T13:40:07.000Z</time>
      </trkpt>
      <trkpt lat="44.93266" lon="4.41167">
        <ele>757</ele>
        <time>2017-04-02T13:40:18.000Z</time>
      </trkpt>
      <trkpt lat="44.93259" lon="4.41159">
        <ele>754</ele>
        <time>2017-04-02T13:40:24.000Z</time>
      </trkpt>
      <trkpt lat="44.93248" lon="4.41155">
        <ele>749</ele>
        <time>2017-04-02T13:41:03.000Z</time>
      </trkpt>
      <trkpt lat="44.93248" lon="4.41141">
        <ele>745</ele>
        <time>2017-04-02T13:43:13.000Z</time>
      </trkpt>
      <trkpt lat="44.93254" lon="4.4113">
        <ele>745</ele>
        <time>2017-04-02T13:43:23.000Z</time>
      </trkpt>
      <trkpt lat="44.9326" lon="4.41119">
        <ele>750</ele>
        <time>2017-04-02T13:43:30.000Z</time>
      </trkpt>
      <trkpt lat="44.9326" lon="4.41098">
        <ele>747</ele>
        <time>2017-04-02T13:43:59.000Z</time>
      </trkpt>
      <trkpt lat="44.93259" lon="4.41085">
        <ele>747</ele>
        <time>2017-04-02T13:44:08.000Z</time>
      </trkpt>
      <trkpt lat="44.93257" lon="4.4107">
        <ele>745</ele>
        <time>2017-04-02T13:44:23.000Z</time>
      </trkpt>
      <trkpt lat="44.93252" lon="4.41056">
        <ele>754</ele>
        <time>2017-04-02T13:44:39.000Z</time>
      </trkpt>
      <trkpt lat="44.93246" lon="4.41047">
        <ele>751</ele>
        <time>2017-04-02T13:44:46.000Z</time>
      </trkpt>
      <trkpt lat="44.93238" lon="4.41039">
        <ele>748</ele>
        <time>2017-04-02T13:44:55.000Z</time>
      </trkpt>
      <trkpt lat="44.93238" lon="4.41019">
        <ele>754</ele>
        <time>2017-04-02T13:45:19.000Z</time>
      </trkpt>
      <trkpt lat="44.93247" lon="4.41009">
        <ele>761</ele>
        <time>2017-04-02T13:45:25.000Z</time>
      </trkpt>
      <trkpt lat="44.93247" lon="4.40987">
        <ele>758</ele>
        <time>2017-04-02T13:45:37.000Z</time>
      </trkpt>
      <trkpt lat="44.93246" lon="4.40973">
        <ele>753</ele>
        <time>2017-04-02T13:45:45.000Z</time>
      </trkpt>
      <trkpt lat="44.93241" lon="4.40961">
        <ele>743</ele>
        <time>2017-04-02T13:45:53.000Z</time>
      </trkpt>
      <trkpt lat="44.93244" lon="4.40946">
        <ele>747</ele>
        <time>2017-04-02T13:46:01.000Z</time>
      </trkpt>
      <trkpt lat="44.93243" lon="4.40931">
        <ele>747</ele>
        <time>2017-04-02T13:46:10.000Z</time>
      </trkpt>
      <trkpt lat="44.93236" lon="4.40918">
        <ele>739</ele>
        <time>2017-04-02T13:46:18.000Z</time>
      </trkpt>
      <trkpt lat="44.9323" lon="4.40887">
        <ele>745</ele>
        <time>2017-04-02T13:47:00.000Z</time>
      </trkpt>
      <trkpt lat="44.93221" lon="4.40874">
        <ele>743</ele>
        <time>2017-04-02T13:47:11.000Z</time>
      </trkpt>
      <trkpt lat="44.93214" lon="4.40866">
        <ele>738</ele>
        <time>2017-04-02T13:47:28.000Z</time>
      </trkpt>
      <trkpt lat="44.93209" lon="4.40853">
        <ele>746</ele>
        <time>2017-04-02T13:47:46.000Z</time>
      </trkpt>
      <trkpt lat="44.93196" lon="4.40841">
        <ele>744</ele>
        <time>2017-04-02T13:48:00.000Z</time>
      </trkpt>
      <trkpt lat="44.93185" lon="4.40833">
        <ele>742</ele>
        <time>2017-04-02T13:48:12.000Z</time>
      </trkpt>
      <trkpt lat="44.93178" lon="4.40825">
        <ele>746</ele>
        <time>2017-04-02T13:48:23.000Z</time>
      </trkpt>
      <trkpt lat="44.93166" lon="4.40821">
        <ele>744</ele>
        <time>2017-04-02T13:48:36.000Z</time>
      </trkpt>
      <trkpt lat="44.93156" lon="4.40813">
        <ele>744</ele>
        <time>2017-04-02T13:48:46.000Z</time>
      </trkpt>
      <trkpt lat="44.93145" lon="4.40815">
        <ele>739</ele>
        <time>2017-04-02T13:49:20.000Z</time>
      </trkpt>
      <trkpt lat="44.93136" lon="4.40819">
        <ele>733</ele>
        <time>2017-04-02T13:49:26.000Z</time>
      </trkpt>
      <trkpt lat="44.93125" lon="4.40817">
        <ele>735</ele>
        <time>2017-04-02T13:49:37.000Z</time>
      </trkpt>
      <trkpt lat="44.93115" lon="4.4082">
        <ele>734</ele>
        <time>2017-04-02T13:49:48.000Z</time>
      </trkpt>
      <trkpt lat="44.93105" lon="4.40818">
        <ele>734</ele>
        <time>2017-04-02T13:49:57.000Z</time>
      </trkpt>
      <trkpt lat="44.93087" lon="4.40821">
        <ele>737</ele>
        <time>2017-04-02T13:50:14.000Z</time>
      </trkpt>
      <trkpt lat="44.93072" lon="4.40821">
        <ele>737</ele>
        <time>2017-04-02T13:50:30.000Z</time>
      </trkpt>
      <trkpt lat="44.93061" lon="4.40825">
        <ele>731</ele>
        <time>2017-04-02T13:50:37.000Z</time>
      </trkpt>
      <trkpt lat="44.93051" lon="4.40822">
        <ele>733</ele>
        <time>2017-04-02T13:50:47.000Z</time>
      </trkpt>
      <trkpt lat="44.93042" lon="4.40819">
        <ele>733</ele>
        <time>2017-04-02T13:50:59.000Z</time>
      </trkpt>
      <trkpt lat="44.92996" lon="4.40799">
        <ele>741</ele>
        <time>2017-04-02T13:51:58.000Z</time>
      </trkpt>
      <trkpt lat="44.92984" lon="4.40805">
        <ele>737</ele>
        <time>2017-04-02T13:52:08.000Z</time>
      </trkpt>
      <trkpt lat="44.92977" lon="4.40813">
        <ele>735</ele>
        <time>2017-04-02T13:52:24.000Z</time>
      </trkpt>
      <trkpt lat="44.92971" lon="4.40825">
        <ele>733</ele>
        <time>2017-04-02T13:52:43.000Z</time>
      </trkpt>
      <trkpt lat="44.92959" lon="4.40836">
        <ele>731</ele>
        <time>2017-04-02T13:52:57.000Z</time>
      </trkpt>
      <trkpt lat="44.92947" lon="4.40844">
        <ele>729</ele>
        <time>2017-04-02T13:53:10.000Z</time>
      </trkpt>
      <trkpt lat="44.92937" lon="4.40847">
        <ele>729</ele>
        <time>2017-04-02T13:53:20.000Z</time>
      </trkpt>
      <trkpt lat="44.92927" lon="4.4085">
        <ele>727</ele>
        <time>2017-04-02T13:53:31.000Z</time>
      </trkpt>
      <trkpt lat="44.92913" lon="4.40873">
        <ele>722</ele>
        <time>2017-04-02T13:53:55.000Z</time>
      </trkpt>
      <trkpt lat="44.92912" lon="4.4089">
        <ele>721</ele>
        <time>2017-04-02T13:54:09.000Z</time>
      </trkpt>
      <trkpt lat="44.9291" lon="4.40903">
        <ele>721</ele>
        <time>2017-04-02T13:54:18.000Z</time>
      </trkpt>
      <trkpt lat="44.92906" lon="4.40917">
        <ele>718</ele>
        <time>2017-04-02T13:54:30.000Z</time>
      </trkpt>
      <trkpt lat="44.92905" lon="4.40932">
        <ele>717</ele>
        <time>2017-04-02T13:54:43.000Z</time>
      </trkpt>
      <trkpt lat="44.92904" lon="4.40944">
        <ele>720</ele>
        <time>2017-04-02T13:54:55.000Z</time>
      </trkpt>
      <trkpt lat="44.929" lon="4.40957">
        <ele>713</ele>
        <time>2017-04-02T13:55:22.000Z</time>
      </trkpt>
      <trkpt lat="44.92889" lon="4.40955">
        <ele>714</ele>
        <time>2017-04-02T13:55:36.000Z</time>
      </trkpt>
      <trkpt lat="44.92881" lon="4.40949">
        <ele>717</ele>
        <time>2017-04-02T13:55:43.000Z</time>
      </trkpt>
      <trkpt lat="44.92875" lon="4.40935">
        <ele>712</ele>
        <time>2017-04-02T13:55:57.000Z</time>
      </trkpt>
      <trkpt lat="44.9287" lon="4.40922">
        <ele>709</ele>
        <time>2017-04-02T13:56:07.000Z</time>
      </trkpt>
      <trkpt lat="44.92865" lon="4.4091">
        <ele>710</ele>
        <time>2017-04-02T13:56:18.000Z</time>
      </trkpt>
      <trkpt lat="44.92857" lon="4.40901">
        <ele>709</ele>
        <time>2017-04-02T13:56:31.000Z</time>
      </trkpt>
      <trkpt lat="44.92852" lon="4.4089">
        <ele>706</ele>
        <time>2017-04-02T13:56:42.000Z</time>
      </trkpt>
      <trkpt lat="44.92847" lon="4.40878">
        <ele>703</ele>
        <time>2017-04-02T13:56:51.000Z</time>
      </trkpt>
      <trkpt lat="44.92842" lon="4.40865">
        <ele>702</ele>
        <time>2017-04-02T13:57:00.000Z</time>
      </trkpt>
      <trkpt lat="44.92836" lon="4.40852">
        <ele>698</ele>
        <time>2017-04-02T13:57:12.000Z</time>
      </trkpt>
      <trkpt lat="44.92829" lon="4.40844">
        <ele>696</ele>
        <time>2017-04-02T13:57:22.000Z</time>
      </trkpt>
      <trkpt lat="44.92826" lon="4.40859">
        <ele>688</ele>
        <time>2017-04-02T13:57:53.000Z</time>
      </trkpt>
      <trkpt lat="44.92827" lon="4.40893">
        <ele>684</ele>
        <time>2017-04-02T13:58:18.000Z</time>
      </trkpt>
      <trkpt lat="44.9283" lon="4.40906">
        <ele>684</ele>
        <time>2017-04-02T13:58:27.000Z</time>
      </trkpt>
      <trkpt lat="44.92812" lon="4.40902">
        <ele>681</ele>
        <time>2017-04-02T13:58:54.000Z</time>
      </trkpt>
      <trkpt lat="44.92805" lon="4.40889">
        <ele>680</ele>
        <time>2017-04-02T13:59:04.000Z</time>
      </trkpt>
      <trkpt lat="44.92801" lon="4.40874">
        <ele>679</ele>
        <time>2017-04-02T13:59:13.000Z</time>
      </trkpt>
      <trkpt lat="44.92796" lon="4.40861">
        <ele>679</ele>
        <time>2017-04-02T13:59:22.000Z</time>
      </trkpt>
      <trkpt lat="44.92791" lon="4.40848">
        <ele>678</ele>
        <time>2017-04-02T13:59:31.000Z</time>
      </trkpt>
      <trkpt lat="44.92785" lon="4.40836">
        <ele>674</ele>
        <time>2017-04-02T14:00:03.000Z</time>
      </trkpt>
      <trkpt lat="44.92792" lon="4.40846">
        <ele>667</ele>
        <time>2017-04-02T14:10:09.000Z</time>
      </trkpt>
      <trkpt lat="44.92795" lon="4.4086">
        <ele>667</ele>
        <time>2017-04-02T14:10:18.000Z</time>
      </trkpt>
      <trkpt lat="44.92797" lon="4.40876">
        <ele>668</ele>
        <time>2017-04-02T14:10:28.000Z</time>
      </trkpt>
      <trkpt lat="44.92798" lon="4.40895">
        <ele>667</ele>
        <time>2017-04-02T14:10:37.000Z</time>
      </trkpt>
      <trkpt lat="44.92801" lon="4.40907">
        <ele>667</ele>
        <time>2017-04-02T14:10:44.000Z</time>
      </trkpt>
      <trkpt lat="44.92805" lon="4.4092">
        <ele>668</ele>
        <time>2017-04-02T14:10:52.000Z</time>
      </trkpt>
      <trkpt lat="44.92808" lon="4.40934">
        <ele>669</ele>
        <time>2017-04-02T14:11:01.000Z</time>
      </trkpt>
      <trkpt lat="44.92811" lon="4.40947">
        <ele>668</ele>
        <time>2017-04-02T14:11:09.000Z</time>
      </trkpt>
      <trkpt lat="44.92814" lon="4.40961">
        <ele>667</ele>
        <time>2017-04-02T14:11:17.000Z</time>
      </trkpt>
      <trkpt lat="44.92816" lon="4.40974">
        <ele>667</ele>
        <time>2017-04-02T14:11:26.000Z</time>
      </trkpt>
      <trkpt lat="44.92817" lon="4.40986">
        <ele>666</ele>
        <time>2017-04-02T14:11:35.000Z</time>
      </trkpt>
      <trkpt lat="44.92816" lon="4.41">
        <ele>665</ele>
        <time>2017-04-02T14:11:43.000Z</time>
      </trkpt>
      <trkpt lat="44.9282" lon="4.41012">
        <ele>665</ele>
        <time>2017-04-02T14:11:51.000Z</time>
      </trkpt>
      <trkpt lat="44.92823" lon="4.41024">
        <ele>664</ele>
        <time>2017-04-02T14:11:58.000Z</time>
      </trkpt>
      <trkpt lat="44.92828" lon="4.41036">
        <ele>662</ele>
        <time>2017-04-02T14:12:06.000Z</time>
      </trkpt>
      <trkpt lat="44.92833" lon="4.41048">
        <ele>662</ele>
        <time>2017-04-02T14:12:14.000Z</time>
      </trkpt>
      <trkpt lat="44.92838" lon="4.4106">
        <ele>661</ele>
        <time>2017-04-02T14:12:22.000Z</time>
      </trkpt>
      <trkpt lat="44.92843" lon="4.41072">
        <ele>661</ele>
        <time>2017-04-02T14:12:30.000Z</time>
      </trkpt>
      <trkpt lat="44.92847" lon="4.41084">
        <ele>661</ele>
        <time>2017-04-02T14:12:38.000Z</time>
      </trkpt>
      <trkpt lat="44.92851" lon="4.41097">
        <ele>662</ele>
        <time>2017-04-02T14:12:45.000Z</time>
      </trkpt>
      <trkpt lat="44.92856" lon="4.41109">
        <ele>662</ele>
        <time>2017-04-02T14:12:55.000Z</time>
      </trkpt>
      <trkpt lat="44.9286" lon="4.41121">
        <ele>662</ele>
        <time>2017-04-02T14:13:02.000Z</time>
      </trkpt>
      <trkpt lat="44.92864" lon="4.41134">
        <ele>662</ele>
        <time>2017-04-02T14:13:12.000Z</time>
      </trkpt>
      <trkpt lat="44.92871" lon="4.41143">
        <ele>658</ele>
        <time>2017-04-02T14:13:18.000Z</time>
      </trkpt>
      <trkpt lat="44.92876" lon="4.41156">
        <ele>657</ele>
        <time>2017-04-02T14:13:27.000Z</time>
      </trkpt>
      <trkpt lat="44.92879" lon="4.41169">
        <ele>660</ele>
        <time>2017-04-02T14:13:37.000Z</time>
      </trkpt>
      <trkpt lat="44.92876" lon="4.41184">
        <ele>662</ele>
        <time>2017-04-02T14:13:46.000Z</time>
      </trkpt>
      <trkpt lat="44.92866" lon="4.41192">
        <ele>664</ele>
        <time>2017-04-02T14:13:55.000Z</time>
      </trkpt>
      <trkpt lat="44.92853" lon="4.41196">
        <ele>666</ele>
        <time>2017-04-02T14:14:05.000Z</time>
      </trkpt>
      <trkpt lat="44.92846" lon="4.41206">
        <ele>664</ele>
        <time>2017-04-02T14:14:13.000Z</time>
      </trkpt>
      <trkpt lat="44.92844" lon="4.41226">
        <ele>666</ele>
        <time>2017-04-02T14:14:23.000Z</time>
      </trkpt>
      <trkpt lat="44.9285" lon="4.41259">
        <ele>662</ele>
        <time>2017-04-02T14:14:42.000Z</time>
      </trkpt>
      <trkpt lat="44.92849" lon="4.41272">
        <ele>663</ele>
        <time>2017-04-02T14:14:50.000Z</time>
      </trkpt>
      <trkpt lat="44.9285" lon="4.41285">
        <ele>663</ele>
        <time>2017-04-02T14:14:57.000Z</time>
      </trkpt>
      <trkpt lat="44.92849" lon="4.41298">
        <ele>663</ele>
        <time>2017-04-02T14:15:04.000Z</time>
      </trkpt>
      <trkpt lat="44.92848" lon="4.41311">
        <ele>665</ele>
        <time>2017-04-02T14:15:12.000Z</time>
      </trkpt>
      <trkpt lat="44.92849" lon="4.41325">
        <ele>666</ele>
        <time>2017-04-02T14:15:21.000Z</time>
      </trkpt>
      <trkpt lat="44.9285" lon="4.41338">
        <ele>664</ele>
        <time>2017-04-02T14:15:30.000Z</time>
      </trkpt>
      <trkpt lat="44.92852" lon="4.41351">
        <ele>664</ele>
        <time>2017-04-02T14:16:06.000Z</time>
      </trkpt>
      <trkpt lat="44.92875" lon="4.4144">
        <ele>664</ele>
        <time>2017-04-02T14:16:56.000Z</time>
      </trkpt>
      <trkpt lat="44.92878" lon="4.41456">
        <ele>664</ele>
        <time>2017-04-02T14:17:05.000Z</time>
      </trkpt>
      <trkpt lat="44.92882" lon="4.41469">
        <ele>663</ele>
        <time>2017-04-02T14:17:20.000Z</time>
      </trkpt>
      <trkpt lat="44.92885" lon="4.41485">
        <ele>662</ele>
        <time>2017-04-02T14:17:30.000Z</time>
      </trkpt>
      <trkpt lat="44.9289" lon="4.41497">
        <ele>659</ele>
        <time>2017-04-02T14:17:39.000Z</time>
      </trkpt>
      <trkpt lat="44.92892" lon="4.41511">
        <ele>657</ele>
        <time>2017-04-02T14:17:48.000Z</time>
      </trkpt>
      <trkpt lat="44.92891" lon="4.41526">
        <ele>659</ele>
        <time>2017-04-02T14:17:55.000Z</time>
      </trkpt>
      <trkpt lat="44.92894" lon="4.4154">
        <ele>663</ele>
        <time>2017-04-02T14:18:03.000Z</time>
      </trkpt>
      <trkpt lat="44.92894" lon="4.41562">
        <ele>668</ele>
        <time>2017-04-02T14:18:17.000Z</time>
      </trkpt>
      <trkpt lat="44.92896" lon="4.41577">
        <ele>668</ele>
        <time>2017-04-02T14:18:26.000Z</time>
      </trkpt>
      <trkpt lat="44.92899" lon="4.41593">
        <ele>669</ele>
        <time>2017-04-02T14:18:38.000Z</time>
      </trkpt>
      <trkpt lat="44.92899" lon="4.41608">
        <ele>668</ele>
        <time>2017-04-02T14:18:50.000Z</time>
      </trkpt>
      <trkpt lat="44.92894" lon="4.4162">
        <ele>669</ele>
        <time>2017-04-02T14:19:00.000Z</time>
      </trkpt>
      <trkpt lat="44.92897" lon="4.41634">
        <ele>668</ele>
        <time>2017-04-02T14:19:08.000Z</time>
      </trkpt>
      <trkpt lat="44.92904" lon="4.4165">
        <ele>663</ele>
        <time>2017-04-02T14:19:18.000Z</time>
      </trkpt>
      <trkpt lat="44.9291" lon="4.41662">
        <ele>662</ele>
        <time>2017-04-02T14:19:25.000Z</time>
      </trkpt>
      <trkpt lat="44.92914" lon="4.41675">
        <ele>660</ele>
        <time>2017-04-02T14:19:32.000Z</time>
      </trkpt>
      <trkpt lat="44.92916" lon="4.4169">
        <ele>656</ele>
        <time>2017-04-02T14:19:40.000Z</time>
      </trkpt>
      <trkpt lat="44.92893" lon="4.41706">
        <ele>671</ele>
        <time>2017-04-02T14:19:59.000Z</time>
      </trkpt>
      <trkpt lat="44.92883" lon="4.41712">
        <ele>667</ele>
        <time>2017-04-02T14:20:08.000Z</time>
      </trkpt>
      <trkpt lat="44.92878" lon="4.41701">
        <ele>669</ele>
        <time>2017-04-02T14:20:23.000Z</time>
      </trkpt>
      <trkpt lat="44.9287" lon="4.41685">
        <ele>675</ele>
        <time>2017-04-02T14:20:42.000Z</time>
      </trkpt>
      <trkpt lat="44.92864" lon="4.41674">
        <ele>676</ele>
        <time>2017-04-02T14:20:50.000Z</time>
      </trkpt>
      <trkpt lat="44.92856" lon="4.41662">
        <ele>677</ele>
        <time>2017-04-02T14:21:00.000Z</time>
      </trkpt>
      <trkpt lat="44.92849" lon="4.41649">
        <ele>678</ele>
        <time>2017-04-02T14:21:09.000Z</time>
      </trkpt>
      <trkpt lat="44.92838" lon="4.41641">
        <ele>676</ele>
        <time>2017-04-02T14:21:18.000Z</time>
      </trkpt>
      <trkpt lat="44.92828" lon="4.41632">
        <ele>677</ele>
        <time>2017-04-02T14:21:27.000Z</time>
      </trkpt>
      <trkpt lat="44.92818" lon="4.41627">
        <ele>676</ele>
        <time>2017-04-02T14:21:38.000Z</time>
      </trkpt>
      <trkpt lat="44.92812" lon="4.41613">
        <ele>680</ele>
        <time>2017-04-02T14:21:47.000Z</time>
      </trkpt>
      <trkpt lat="44.92805" lon="4.41605">
        <ele>681</ele>
        <time>2017-04-02T14:21:56.000Z</time>
      </trkpt>
      <trkpt lat="44.92796" lon="4.41597">
        <ele>683</ele>
        <time>2017-04-02T14:22:05.000Z</time>
      </trkpt>
      <trkpt lat="44.9279" lon="4.41587">
        <ele>680</ele>
        <time>2017-04-02T14:22:52.000Z</time>
      </trkpt>
      <trkpt lat="44.92781" lon="4.41583">
        <ele>679</ele>
        <time>2017-04-02T14:23:03.000Z</time>
      </trkpt>
      <trkpt lat="44.92771" lon="4.41577">
        <ele>680</ele>
        <time>2017-04-02T14:23:12.000Z</time>
      </trkpt>
      <trkpt lat="44.92763" lon="4.41569">
        <ele>680</ele>
        <time>2017-04-02T14:23:18.000Z</time>
      </trkpt>
      <trkpt lat="44.92755" lon="4.4156">
        <ele>679</ele>
        <time>2017-04-02T14:23:25.000Z</time>
      </trkpt>
      <trkpt lat="44.92747" lon="4.41552">
        <ele>678</ele>
        <time>2017-04-02T14:23:31.000Z</time>
      </trkpt>
      <trkpt lat="44.92736" lon="4.41545">
        <ele>677</ele>
        <time>2017-04-02T14:23:38.000Z</time>
      </trkpt>
      <trkpt lat="44.92727" lon="4.41539">
        <ele>676</ele>
        <time>2017-04-02T14:23:45.000Z</time>
      </trkpt>
      <trkpt lat="44.92714" lon="4.41536">
        <ele>674</ele>
        <time>2017-04-02T14:23:54.000Z</time>
      </trkpt>
      <trkpt lat="44.92703" lon="4.41534">
        <ele>672</ele>
        <time>2017-04-02T14:24:02.000Z</time>
      </trkpt>
      <trkpt lat="44.92692" lon="4.41519">
        <ele>667</ele>
        <time>2017-04-02T14:24:16.000Z</time>
      </trkpt>
      <trkpt lat="44.92689" lon="4.41503">
        <ele>669</ele>
        <time>2017-04-02T14:24:24.000Z</time>
      </trkpt>
      <trkpt lat="44.92683" lon="4.41485">
        <ele>668</ele>
        <time>2017-04-02T14:24:34.000Z</time>
      </trkpt>
      <trkpt lat="44.92677" lon="4.4147">
        <ele>670</ele>
        <time>2017-04-02T14:24:41.000Z</time>
      </trkpt>
      <trkpt lat="44.9267" lon="4.41451">
        <ele>672</ele>
        <time>2017-04-02T14:24:51.000Z</time>
      </trkpt>
      <trkpt lat="44.92663" lon="4.41442">
        <ele>673</ele>
        <time>2017-04-02T14:24:57.000Z</time>
      </trkpt>
      <trkpt lat="44.92652" lon="4.41425">
        <ele>672</ele>
        <time>2017-04-02T14:25:08.000Z</time>
      </trkpt>
      <trkpt lat="44.92644" lon="4.41411">
        <ele>669</ele>
        <time>2017-04-02T14:25:16.000Z</time>
      </trkpt>
      <trkpt lat="44.92646" lon="4.41399">
        <ele>670</ele>
        <time>2017-04-02T14:25:25.000Z</time>
      </trkpt>
      <trkpt lat="44.92639" lon="4.41382">
        <ele>673</ele>
        <time>2017-04-02T14:25:33.000Z</time>
      </trkpt>
      <trkpt lat="44.92632" lon="4.41367">
        <ele>676</ele>
        <time>2017-04-02T14:25:40.000Z</time>
      </trkpt>
      <trkpt lat="44.92624" lon="4.41357">
        <ele>676</ele>
        <time>2017-04-02T14:25:45.000Z</time>
      </trkpt>
      <trkpt lat="44.92617" lon="4.41347">
        <ele>675</ele>
        <time>2017-04-02T14:25:51.000Z</time>
      </trkpt>
      <trkpt lat="44.92611" lon="4.41336">
        <ele>674</ele>
        <time>2017-04-02T14:25:57.000Z</time>
      </trkpt>
      <trkpt lat="44.92601" lon="4.41326">
        <ele>674</ele>
        <time>2017-04-02T14:26:04.000Z</time>
      </trkpt>
      <trkpt lat="44.92583" lon="4.41308">
        <ele>675</ele>
        <time>2017-04-02T14:26:16.000Z</time>
      </trkpt>
      <trkpt lat="44.92574" lon="4.413">
        <ele>676</ele>
        <time>2017-04-02T14:26:22.000Z</time>
      </trkpt>
      <trkpt lat="44.92564" lon="4.41293">
        <ele>679</ele>
        <time>2017-04-02T14:26:31.000Z</time>
      </trkpt>
      <trkpt lat="44.92556" lon="4.41287">
        <ele>677</ele>
        <time>2017-04-02T14:26:54.000Z</time>
      </trkpt>
      <trkpt lat="44.92547" lon="4.4128">
        <ele>677</ele>
        <time>2017-04-02T14:27:05.000Z</time>
      </trkpt>
      <trkpt lat="44.92521" lon="4.41256">
        <ele>680</ele>
        <time>2017-04-02T14:27:26.000Z</time>
      </trkpt>
      <trkpt lat="44.92513" lon="4.41246">
        <ele>684</ele>
        <time>2017-04-02T14:27:34.000Z</time>
      </trkpt>
      <trkpt lat="44.92505" lon="4.4124">
        <ele>683</ele>
        <time>2017-04-02T14:27:39.000Z</time>
      </trkpt>
      <trkpt lat="44.92494" lon="4.41232">
        <ele>686</ele>
        <time>2017-04-02T14:27:48.000Z</time>
      </trkpt>
      <trkpt lat="44.92487" lon="4.41224">
        <ele>686</ele>
        <time>2017-04-02T14:27:55.000Z</time>
      </trkpt>
      <trkpt lat="44.92477" lon="4.41216">
        <ele>687</ele>
        <time>2017-04-02T14:28:03.000Z</time>
      </trkpt>
      <trkpt lat="44.92468" lon="4.41211">
        <ele>689</ele>
        <time>2017-04-02T14:28:12.000Z</time>
      </trkpt>
      <trkpt lat="44.92458" lon="4.41202">
        <ele>688</ele>
        <time>2017-04-02T14:28:21.000Z</time>
      </trkpt>
      <trkpt lat="44.92448" lon="4.41195">
        <ele>687</ele>
        <time>2017-04-02T14:28:29.000Z</time>
      </trkpt>
      <trkpt lat="44.92441" lon="4.41187">
        <ele>690</ele>
        <time>2017-04-02T14:28:37.000Z</time>
      </trkpt>
      <trkpt lat="44.92432" lon="4.41182">
        <ele>688</ele>
        <time>2017-04-02T14:28:43.000Z</time>
      </trkpt>
      <trkpt lat="44.92423" lon="4.41178">
        <ele>689</ele>
        <time>2017-04-02T14:28:49.000Z</time>
      </trkpt>
      <trkpt lat="44.92411" lon="4.41172">
        <ele>689</ele>
        <time>2017-04-02T14:28:59.000Z</time>
      </trkpt>
      <trkpt lat="44.92401" lon="4.41166">
        <ele>688</ele>
        <time>2017-04-02T14:29:08.000Z</time>
      </trkpt>
      <trkpt lat="44.9239" lon="4.41162">
        <ele>691</ele>
        <time>2017-04-02T14:29:17.000Z</time>
      </trkpt>
      <trkpt lat="44.92381" lon="4.41164">
        <ele>689</ele>
        <time>2017-04-02T14:29:23.000Z</time>
      </trkpt>
      <trkpt lat="44.92369" lon="4.4117">
        <ele>686</ele>
        <time>2017-04-02T14:29:32.000Z</time>
      </trkpt>
      <trkpt lat="44.9236" lon="4.41178">
        <ele>685</ele>
        <time>2017-04-02T14:29:41.000Z</time>
      </trkpt>
      <trkpt lat="44.92353" lon="4.41187">
        <ele>683</ele>
        <time>2017-04-02T14:29:48.000Z</time>
      </trkpt>
      <trkpt lat="44.92347" lon="4.41198">
        <ele>681</ele>
        <time>2017-04-02T14:29:57.000Z</time>
      </trkpt>
      <trkpt lat="44.92341" lon="4.4121">
        <ele>680</ele>
        <time>2017-04-02T14:30:06.000Z</time>
      </trkpt>
      <trkpt lat="44.92336" lon="4.41222">
        <ele>684</ele>
        <time>2017-04-02T14:30:18.000Z</time>
      </trkpt>
      <trkpt lat="44.92339" lon="4.41235">
        <ele>680</ele>
        <time>2017-04-02T14:30:54.000Z</time>
      </trkpt>
      <trkpt lat="44.92331" lon="4.41244">
        <ele>674</ele>
        <time>2017-04-02T14:31:19.000Z</time>
      </trkpt>
      <trkpt lat="44.92325" lon="4.41258">
        <ele>672</ele>
        <time>2017-04-02T14:31:34.000Z</time>
      </trkpt>
      <trkpt lat="44.92316" lon="4.41271">
        <ele>674</ele>
        <time>2017-04-02T14:31:48.000Z</time>
      </trkpt>
      <trkpt lat="44.92313" lon="4.41286">
        <ele>676</ele>
        <time>2017-04-02T14:32:02.000Z</time>
      </trkpt>
      <trkpt lat="44.92307" lon="4.41298">
        <ele>679</ele>
        <time>2017-04-02T14:32:16.000Z</time>
      </trkpt>
      <trkpt lat="44.923" lon="4.41307">
        <ele>673</ele>
        <time>2017-04-02T14:32:23.000Z</time>
      </trkpt>
      <trkpt lat="44.92293" lon="4.41319">
        <ele>670</ele>
        <time>2017-04-02T14:32:35.000Z</time>
      </trkpt>
      <trkpt lat="44.92287" lon="4.41359">
        <ele>664</ele>
        <time>2017-04-02T14:33:00.000Z</time>
      </trkpt>
      <trkpt lat="44.92289" lon="4.41373">
        <ele>660</ele>
        <time>2017-04-02T14:33:09.000Z</time>
      </trkpt>
      <trkpt lat="44.92287" lon="4.41389">
        <ele>660</ele>
        <time>2017-04-02T14:33:19.000Z</time>
      </trkpt>
      <trkpt lat="44.92285" lon="4.41407">
        <ele>659</ele>
        <time>2017-04-02T14:33:33.000Z</time>
      </trkpt>
      <trkpt lat="44.92278" lon="4.4142">
        <ele>662</ele>
        <time>2017-04-02T14:33:47.000Z</time>
      </trkpt>
      <trkpt lat="44.9227" lon="4.41428">
        <ele>667</ele>
        <time>2017-04-02T14:33:56.000Z</time>
      </trkpt>
      <trkpt lat="44.92266" lon="4.41445">
        <ele>666</ele>
        <time>2017-04-02T14:34:08.000Z</time>
      </trkpt>
      <trkpt lat="44.9226" lon="4.41458">
        <ele>665</ele>
        <time>2017-04-02T14:34:18.000Z</time>
      </trkpt>
      <trkpt lat="44.92251" lon="4.41467">
        <ele>664</ele>
        <time>2017-04-02T14:34:30.000Z</time>
      </trkpt>
      <trkpt lat="44.92247" lon="4.41479">
        <ele>665</ele>
        <time>2017-04-02T14:34:39.000Z</time>
      </trkpt>
      <trkpt lat="44.92239" lon="4.41488">
        <ele>664</ele>
        <time>2017-04-02T14:34:49.000Z</time>
      </trkpt>
      <trkpt lat="44.92233" lon="4.415">
        <ele>664</ele>
        <time>2017-04-02T14:35:02.000Z</time>
      </trkpt>
      <trkpt lat="44.92229" lon="4.41513">
        <ele>664</ele>
        <time>2017-04-02T14:35:13.000Z</time>
      </trkpt>
      <trkpt lat="44.92224" lon="4.41525">
        <ele>665</ele>
        <time>2017-04-02T14:35:21.000Z</time>
      </trkpt>
      <trkpt lat="44.92216" lon="4.41537">
        <ele>663</ele>
        <time>2017-04-02T14:35:31.000Z</time>
      </trkpt>
      <trkpt lat="44.9221" lon="4.4155">
        <ele>663</ele>
        <time>2017-04-02T14:35:43.000Z</time>
      </trkpt>
      <trkpt lat="44.92207" lon="4.41562">
        <ele>660</ele>
        <time>2017-04-02T14:35:52.000Z</time>
      </trkpt>
      <trkpt lat="44.92203" lon="4.41583">
        <ele>660</ele>
        <time>2017-04-02T14:36:10.000Z</time>
      </trkpt>
      <trkpt lat="44.92194" lon="4.4159">
        <ele>663</ele>
        <time>2017-04-02T14:36:28.000Z</time>
      </trkpt>
      <trkpt lat="44.92187" lon="4.41578">
        <ele>665</ele>
        <time>2017-04-02T14:36:39.000Z</time>
      </trkpt>
      <trkpt lat="44.9218" lon="4.4157">
        <ele>659</ele>
        <time>2017-04-02T14:36:46.000Z</time>
      </trkpt>
      <trkpt lat="44.92172" lon="4.41558">
        <ele>657</ele>
        <time>2017-04-02T14:36:55.000Z</time>
      </trkpt>
      <trkpt lat="44.92162" lon="4.41551">
        <ele>657</ele>
        <time>2017-04-02T14:37:04.000Z</time>
      </trkpt>
      <trkpt lat="44.92154" lon="4.41542">
        <ele>655</ele>
        <time>2017-04-02T14:37:14.000Z</time>
      </trkpt>
      <trkpt lat="44.92146" lon="4.41531">
        <ele>655</ele>
        <time>2017-04-02T14:37:27.000Z</time>
      </trkpt>
      <trkpt lat="44.92136" lon="4.41523">
        <ele>654</ele>
        <time>2017-04-02T14:37:35.000Z</time>
      </trkpt>
      <trkpt lat="44.92128" lon="4.41516">
        <ele>653</ele>
        <time>2017-04-02T14:37:41.000Z</time>
      </trkpt>
      <trkpt lat="44.92119" lon="4.41505">
        <ele>651</ele>
        <time>2017-04-02T14:37:50.000Z</time>
      </trkpt>
      <trkpt lat="44.9211" lon="4.41499">
        <ele>645</ele>
        <time>2017-04-02T14:37:56.000Z</time>
      </trkpt>
      <trkpt lat="44.92104" lon="4.4149">
        <ele>642</ele>
        <time>2017-04-02T14:38:05.000Z</time>
      </trkpt>
      <trkpt lat="44.92094" lon="4.41482">
        <ele>640</ele>
        <time>2017-04-02T14:38:13.000Z</time>
      </trkpt>
      <trkpt lat="44.92084" lon="4.41478">
        <ele>643</ele>
        <time>2017-04-02T14:38:24.000Z</time>
      </trkpt>
      <trkpt lat="44.92075" lon="4.41477">
        <ele>639</ele>
        <time>2017-04-02T14:39:32.000Z</time>
      </trkpt>
      <trkpt lat="44.92072" lon="4.41465">
        <ele>641</ele>
        <time>2017-04-02T14:41:54.000Z</time>
      </trkpt>
      <trkpt lat="44.92068" lon="4.41452">
        <ele>643</ele>
        <time>2017-04-02T14:42:09.000Z</time>
      </trkpt>
      <trkpt lat="44.92057" lon="4.41446">
        <ele>640</ele>
        <time>2017-04-02T14:42:21.000Z</time>
      </trkpt>
      <trkpt lat="44.92049" lon="4.41441">
        <ele>643</ele>
        <time>2017-04-02T14:42:30.000Z</time>
      </trkpt>
      <trkpt lat="44.92038" lon="4.4144">
        <ele>641</ele>
        <time>2017-04-02T14:42:40.000Z</time>
      </trkpt>
      <trkpt lat="44.92015" lon="4.41444">
        <ele>642</ele>
        <time>2017-04-02T14:43:00.000Z</time>
      </trkpt>
      <trkpt lat="44.92003" lon="4.41455">
        <ele>640</ele>
        <time>2017-04-02T14:43:09.000Z</time>
      </trkpt>
      <trkpt lat="44.91995" lon="4.41465">
        <ele>639</ele>
        <time>2017-04-02T14:43:17.000Z</time>
      </trkpt>
      <trkpt lat="44.91988" lon="4.41477">
        <ele>637</ele>
        <time>2017-04-02T14:43:26.000Z</time>
      </trkpt>
      <trkpt lat="44.9198" lon="4.41489">
        <ele>637</ele>
        <time>2017-04-02T14:43:35.000Z</time>
      </trkpt>
      <trkpt lat="44.91971" lon="4.41508">
        <ele>637</ele>
        <time>2017-04-02T14:43:50.000Z</time>
      </trkpt>
      <trkpt lat="44.91965" lon="4.4152">
        <ele>637</ele>
        <time>2017-04-02T14:43:59.000Z</time>
      </trkpt>
      <trkpt lat="44.91958" lon="4.4153">
        <ele>635</ele>
        <time>2017-04-02T14:44:08.000Z</time>
      </trkpt>
      <trkpt lat="44.91951" lon="4.41542">
        <ele>636</ele>
        <time>2017-04-02T14:44:18.000Z</time>
      </trkpt>
      <trkpt lat="44.91944" lon="4.41552">
        <ele>633</ele>
        <time>2017-04-02T14:44:27.000Z</time>
      </trkpt>
      <trkpt lat="44.91935" lon="4.41564">
        <ele>632</ele>
        <time>2017-04-02T14:44:36.000Z</time>
      </trkpt>
      <trkpt lat="44.91927" lon="4.41575">
        <ele>632</ele>
        <time>2017-04-02T14:44:45.000Z</time>
      </trkpt>
      <trkpt lat="44.9192" lon="4.41583">
        <ele>632</ele>
        <time>2017-04-02T14:44:54.000Z</time>
      </trkpt>
      <trkpt lat="44.91913" lon="4.41596">
        <ele>631</ele>
        <time>2017-04-02T14:45:03.000Z</time>
      </trkpt>
      <trkpt lat="44.91903" lon="4.41607">
        <ele>630</ele>
        <time>2017-04-02T14:45:12.000Z</time>
      </trkpt>
      <trkpt lat="44.91893" lon="4.41617">
        <ele>628</ele>
        <time>2017-04-02T14:45:21.000Z</time>
      </trkpt>
      <trkpt lat="44.91873" lon="4.41637">
        <ele>624</ele>
        <time>2017-04-02T14:45:43.000Z</time>
      </trkpt>
      <trkpt lat="44.9186" lon="4.41648">
        <ele>623</ele>
        <time>2017-04-02T14:45:59.000Z</time>
      </trkpt>
      <trkpt lat="44.91852" lon="4.41654">
        <ele>624</ele>
        <time>2017-04-02T14:46:08.000Z</time>
      </trkpt>
      <trkpt lat="44.9184" lon="4.41659">
        <ele>622</ele>
        <time>2017-04-02T14:46:17.000Z</time>
      </trkpt>
      <trkpt lat="44.91827" lon="4.41664">
        <ele>620</ele>
        <time>2017-04-02T14:46:27.000Z</time>
      </trkpt>
      <trkpt lat="44.91819" lon="4.41673">
        <ele>618</ele>
        <time>2017-04-02T14:46:36.000Z</time>
      </trkpt>
      <trkpt lat="44.91816" lon="4.41685">
        <ele>616</ele>
        <time>2017-04-02T14:46:45.000Z</time>
      </trkpt>
      <trkpt lat="44.91822" lon="4.41695">
        <ele>617</ele>
        <time>2017-04-02T14:46:59.000Z</time>
      </trkpt>
      <trkpt lat="44.91829" lon="4.41708">
        <ele>614</ele>
        <time>2017-04-02T14:47:11.000Z</time>
      </trkpt>
      <trkpt lat="44.91835" lon="4.41719">
        <ele>617</ele>
        <time>2017-04-02T14:47:23.000Z</time>
      </trkpt>
      <trkpt lat="44.91838" lon="4.41731">
        <ele>615</ele>
        <time>2017-04-02T14:47:34.000Z</time>
      </trkpt>
      <trkpt lat="44.91842" lon="4.41743">
        <ele>614</ele>
        <time>2017-04-02T14:47:41.000Z</time>
      </trkpt>
      <trkpt lat="44.91846" lon="4.41755">
        <ele>618</ele>
        <time>2017-04-02T14:47:51.000Z</time>
      </trkpt>
      <trkpt lat="44.91849" lon="4.4177">
        <ele>616</ele>
        <time>2017-04-02T14:48:02.000Z</time>
      </trkpt>
      <trkpt lat="44.91858" lon="4.41786">
        <ele>604</ele>
        <time>2017-04-02T14:48:11.000Z</time>
      </trkpt>
      <trkpt lat="44.91863" lon="4.41798">
        <ele>605</ele>
        <time>2017-04-02T14:48:20.000Z</time>
      </trkpt>
      <trkpt lat="44.91867" lon="4.41811">
        <ele>605</ele>
        <time>2017-04-02T14:48:29.000Z</time>
      </trkpt>
      <trkpt lat="44.91876" lon="4.41822">
        <ele>609</ele>
        <time>2017-04-02T14:48:41.000Z</time>
      </trkpt>
      <trkpt lat="44.91883" lon="4.41831">
        <ele>610</ele>
        <time>2017-04-02T14:48:51.000Z</time>
      </trkpt>
      <trkpt lat="44.9189" lon="4.41843">
        <ele>611</ele>
        <time>2017-04-02T14:49:01.000Z</time>
      </trkpt>
      <trkpt lat="44.919" lon="4.41853">
        <ele>610</ele>
        <time>2017-04-02T14:49:11.000Z</time>
      </trkpt>
      <trkpt lat="44.91909" lon="4.4186">
        <ele>610</ele>
        <time>2017-04-02T14:49:20.000Z</time>
      </trkpt>
      <trkpt lat="44.91918" lon="4.41865">
        <ele>609</ele>
        <time>2017-04-02T14:49:28.000Z</time>
      </trkpt>
      <trkpt lat="44.91927" lon="4.41871">
        <ele>607</ele>
        <time>2017-04-02T14:49:37.000Z</time>
      </trkpt>
      <trkpt lat="44.91935" lon="4.41881">
        <ele>606</ele>
        <time>2017-04-02T14:49:49.000Z</time>
      </trkpt>
      <trkpt lat="44.91927" lon="4.4189">
        <ele>596</ele>
        <time>2017-04-02T14:50:16.000Z</time>
      </trkpt>
      <trkpt lat="44.91915" lon="4.41891">
        <ele>595</ele>
        <time>2017-04-02T14:50:30.000Z</time>
      </trkpt>
      <trkpt lat="44.91905" lon="4.41895">
        <ele>595</ele>
        <time>2017-04-02T14:50:41.000Z</time>
      </trkpt>
      <trkpt lat="44.91895" lon="4.4189">
        <ele>593</ele>
        <time>2017-04-02T14:50:50.000Z</time>
      </trkpt>
      <trkpt lat="44.91885" lon="4.41883">
        <ele>593</ele>
        <time>2017-04-02T14:51:00.000Z</time>
      </trkpt>
      <trkpt lat="44.91875" lon="4.41871">
        <ele>591</ele>
        <time>2017-04-02T14:51:13.000Z</time>
      </trkpt>
      <trkpt lat="44.91866" lon="4.41861">
        <ele>592</ele>
        <time>2017-04-02T14:51:25.000Z</time>
      </trkpt>
      <trkpt lat="44.91858" lon="4.41854">
        <ele>590</ele>
        <time>2017-04-02T14:52:26.000Z</time>
      </trkpt>
      <trkpt lat="44.91876" lon="4.41904">
        <ele>589</ele>
        <time>2017-04-02T14:57:00.000Z</time>
      </trkpt>
      <trkpt lat="44.91882" lon="4.41913">
        <ele>585</ele>
        <time>2017-04-02T14:57:12.000Z</time>
      </trkpt>
      <trkpt lat="44.9189" lon="4.41924">
        <ele>583</ele>
        <time>2017-04-02T14:57:27.000Z</time>
      </trkpt>
      <trkpt lat="44.919" lon="4.41941">
        <ele>588</ele>
        <time>2017-04-02T14:57:54.000Z</time>
      </trkpt>
      <trkpt lat="44.91898" lon="4.41956">
        <ele>584</ele>
        <time>2017-04-02T14:58:08.000Z</time>
      </trkpt>
      <trkpt lat="44.91893" lon="4.41987">
        <ele>575</ele>
        <time>2017-04-02T14:59:01.000Z</time>
      </trkpt>
      <trkpt lat="44.91887" lon="4.41998">
        <ele>575</ele>
        <time>2017-04-02T14:59:11.000Z</time>
      </trkpt>
      <trkpt lat="44.91888" lon="4.42014">
        <ele>572</ele>
        <time>2017-04-02T14:59:22.000Z</time>
      </trkpt>
      <trkpt lat="44.91887" lon="4.42028">
        <ele>575</ele>
        <time>2017-04-02T14:59:32.000Z</time>
      </trkpt>
      <trkpt lat="44.91892" lon="4.4204">
        <ele>572</ele>
        <time>2017-04-02T14:59:45.000Z</time>
      </trkpt>
      <trkpt lat="44.91888" lon="4.42052">
        <ele>571</ele>
        <time>2017-04-02T15:00:05.000Z</time>
      </trkpt>
      <trkpt lat="44.91875" lon="4.42052">
        <ele>574</ele>
        <time>2017-04-02T15:00:16.000Z</time>
      </trkpt>
      <trkpt lat="44.91864" lon="4.42054">
        <ele>574</ele>
        <time>2017-04-02T15:00:33.000Z</time>
      </trkpt>
      <trkpt lat="44.91851" lon="4.42052">
        <ele>573</ele>
        <time>2017-04-02T15:00:42.000Z</time>
      </trkpt>
      <trkpt lat="44.91842" lon="4.42054">
        <ele>573</ele>
        <time>2017-04-02T15:00:49.000Z</time>
      </trkpt>
      <trkpt lat="44.9183" lon="4.42062">
        <ele>570</ele>
        <time>2017-04-02T15:00:58.000Z</time>
      </trkpt>
      <trkpt lat="44.91823" lon="4.42073">
        <ele>568</ele>
        <time>2017-04-02T15:01:07.000Z</time>
      </trkpt>
      <trkpt lat="44.91816" lon="4.42091">
        <ele>566</ele>
        <time>2017-04-02T15:01:19.000Z</time>
      </trkpt>
      <trkpt lat="44.91805" lon="4.42097">
        <ele>563</ele>
        <time>2017-04-02T15:01:32.000Z</time>
      </trkpt>
      <trkpt lat="44.91795" lon="4.42107">
        <ele>566</ele>
        <time>2017-04-02T15:01:44.000Z</time>
      </trkpt>
      <trkpt lat="44.91789" lon="4.42117">
        <ele>568</ele>
        <time>2017-04-02T15:01:53.000Z</time>
      </trkpt>
      <trkpt lat="44.91783" lon="4.42132">
        <ele>567</ele>
        <time>2017-04-02T15:02:06.000Z</time>
      </trkpt>
      <trkpt lat="44.91778" lon="4.42143">
        <ele>567</ele>
        <time>2017-04-02T15:02:20.000Z</time>
      </trkpt>
      <trkpt lat="44.91769" lon="4.42147">
        <ele>566</ele>
        <time>2017-04-02T15:02:32.000Z</time>
      </trkpt>
      <trkpt lat="44.91758" lon="4.42151">
        <ele>565</ele>
        <time>2017-04-02T15:02:44.000Z</time>
      </trkpt>
      <trkpt lat="44.91749" lon="4.42154">
        <ele>564</ele>
        <time>2017-04-02T15:02:52.000Z</time>
      </trkpt>
      <trkpt lat="44.9174" lon="4.42159">
        <ele>563</ele>
        <time>2017-04-02T15:03:00.000Z</time>
      </trkpt>
      <trkpt lat="44.91729" lon="4.42163">
        <ele>562</ele>
        <time>2017-04-02T15:03:09.000Z</time>
      </trkpt>
      <trkpt lat="44.9172" lon="4.42173">
        <ele>564</ele>
        <time>2017-04-02T15:03:21.000Z</time>
      </trkpt>
      <trkpt lat="44.91713" lon="4.42181">
        <ele>565</ele>
        <time>2017-04-02T15:03:30.000Z</time>
      </trkpt>
      <trkpt lat="44.91706" lon="4.42196">
        <ele>563</ele>
        <time>2017-04-02T15:03:43.000Z</time>
      </trkpt>
      <trkpt lat="44.917" lon="4.4221">
        <ele>562</ele>
        <time>2017-04-02T15:03:55.000Z</time>
      </trkpt>
      <trkpt lat="44.91695" lon="4.42224">
        <ele>563</ele>
        <time>2017-04-02T15:04:05.000Z</time>
      </trkpt>
      <trkpt lat="44.91688" lon="4.42238">
        <ele>563</ele>
        <time>2017-04-02T15:04:17.000Z</time>
      </trkpt>
      <trkpt lat="44.9168" lon="4.4225">
        <ele>563</ele>
        <time>2017-04-02T15:04:29.000Z</time>
      </trkpt>
      <trkpt lat="44.91674" lon="4.4226">
        <ele>562</ele>
        <time>2017-04-02T15:04:38.000Z</time>
      </trkpt>
      <trkpt lat="44.91666" lon="4.42275">
        <ele>559</ele>
        <time>2017-04-02T15:04:50.000Z</time>
      </trkpt>
      <trkpt lat="44.91662" lon="4.42291">
        <ele>556</ele>
        <time>2017-04-02T15:05:01.000Z</time>
      </trkpt>
      <trkpt lat="44.91655" lon="4.42302">
        <ele>556</ele>
        <time>2017-04-02T15:05:12.000Z</time>
      </trkpt>
      <trkpt lat="44.91634" lon="4.42333">
        <ele>555</ele>
        <time>2017-04-02T15:05:42.000Z</time>
      </trkpt>
      <trkpt lat="44.91628" lon="4.42346">
        <ele>554</ele>
        <time>2017-04-02T15:05:51.000Z</time>
      </trkpt>
      <trkpt lat="44.91623" lon="4.42356">
        <ele>554</ele>
        <time>2017-04-02T15:06:00.000Z</time>
      </trkpt>
      <trkpt lat="44.91618" lon="4.42368">
        <ele>553</ele>
        <time>2017-04-02T15:06:09.000Z</time>
      </trkpt>
      <trkpt lat="44.91616" lon="4.42381">
        <ele>552</ele>
        <time>2017-04-02T15:06:19.000Z</time>
      </trkpt>
      <trkpt lat="44.91613" lon="4.42396">
        <ele>551</ele>
        <time>2017-04-02T15:06:31.000Z</time>
      </trkpt>
      <trkpt lat="44.91612" lon="4.4241">
        <ele>548</ele>
        <time>2017-04-02T15:10:40.000Z</time>
      </trkpt>
      <trkpt lat="44.91614" lon="4.42424">
        <ele>549</ele>
        <time>2017-04-02T15:10:52.000Z</time>
      </trkpt>
      <trkpt lat="44.91614" lon="4.42438">
        <ele>550</ele>
        <time>2017-04-02T15:11:05.000Z</time>
      </trkpt>
      <trkpt lat="44.91609" lon="4.42456">
        <ele>552</ele>
        <time>2017-04-02T15:11:22.000Z</time>
      </trkpt>
      <trkpt lat="44.91601" lon="4.4247">
        <ele>551</ele>
        <time>2017-04-02T15:11:37.000Z</time>
      </trkpt>
      <trkpt lat="44.91595" lon="4.4248">
        <ele>551</ele>
        <time>2017-04-02T15:11:48.000Z</time>
      </trkpt>
      <trkpt lat="44.9159" lon="4.42495">
        <ele>547</ele>
        <time>2017-04-02T15:12:01.000Z</time>
      </trkpt>
      <trkpt lat="44.91586" lon="4.42508">
        <ele>544</ele>
        <time>2017-04-02T15:12:13.000Z</time>
      </trkpt>
      <trkpt lat="44.91582" lon="4.42521">
        <ele>543</ele>
        <time>2017-04-02T15:12:25.000Z</time>
      </trkpt>
      <trkpt lat="44.91574" lon="4.4253">
        <ele>541</ele>
        <time>2017-04-02T15:12:34.000Z</time>
      </trkpt>
      <trkpt lat="44.91567" lon="4.42546">
        <ele>537</ele>
        <time>2017-04-02T15:12:51.000Z</time>
      </trkpt>
      <trkpt lat="44.91562" lon="4.42561">
        <ele>534</ele>
        <time>2017-04-02T15:13:05.000Z</time>
      </trkpt>
      <trkpt lat="44.91559" lon="4.42573">
        <ele>533</ele>
        <time>2017-04-02T15:13:15.000Z</time>
      </trkpt>
      <trkpt lat="44.91552" lon="4.42584">
        <ele>531</ele>
        <time>2017-04-02T15:13:27.000Z</time>
      </trkpt>
      <trkpt lat="44.91544" lon="4.42592">
        <ele>532</ele>
        <time>2017-04-02T15:13:39.000Z</time>
      </trkpt>
      <trkpt lat="44.91536" lon="4.42604">
        <ele>524</ele>
        <time>2017-04-02T15:13:54.000Z</time>
      </trkpt>
      <trkpt lat="44.91526" lon="4.4261">
        <ele>526</ele>
        <time>2017-04-02T15:14:04.000Z</time>
      </trkpt>
      <trkpt lat="44.91517" lon="4.42613">
        <ele>527</ele>
        <time>2017-04-02T15:14:13.000Z</time>
      </trkpt>
      <trkpt lat="44.91507" lon="4.42618">
        <ele>527</ele>
        <time>2017-04-02T15:14:27.000Z</time>
      </trkpt>
      <trkpt lat="44.91498" lon="4.42621">
        <ele>526</ele>
        <time>2017-04-02T15:14:39.000Z</time>
      </trkpt>
      <trkpt lat="44.91488" lon="4.42625">
        <ele>523</ele>
        <time>2017-04-02T15:14:53.000Z</time>
      </trkpt>
      <trkpt lat="44.91479" lon="4.4263">
        <ele>521</ele>
        <time>2017-04-02T15:15:04.000Z</time>
      </trkpt>
      <trkpt lat="44.91469" lon="4.42644">
        <ele>515</ele>
        <time>2017-04-02T15:15:20.000Z</time>
      </trkpt>
      <trkpt lat="44.91462" lon="4.42655">
        <ele>512</ele>
        <time>2017-04-02T15:15:32.000Z</time>
      </trkpt>
      <trkpt lat="44.91454" lon="4.42661">
        <ele>511</ele>
        <time>2017-04-02T15:15:44.000Z</time>
      </trkpt>
      <trkpt lat="44.91444" lon="4.42666">
        <ele>512</ele>
        <time>2017-04-02T15:15:54.000Z</time>
      </trkpt>
      <trkpt lat="44.91432" lon="4.42674">
        <ele>510</ele>
        <time>2017-04-02T15:16:07.000Z</time>
      </trkpt>
      <trkpt lat="44.91423" lon="4.42683">
        <ele>506</ele>
        <time>2017-04-02T15:16:20.000Z</time>
      </trkpt>
      <trkpt lat="44.91412" lon="4.42686">
        <ele>504</ele>
        <time>2017-04-02T15:16:33.000Z</time>
      </trkpt>
      <trkpt lat="44.91401" lon="4.42685">
        <ele>501</ele>
        <time>2017-04-02T15:16:45.000Z</time>
      </trkpt>
      <trkpt lat="44.91388" lon="4.42683">
        <ele>500</ele>
        <time>2017-04-02T15:17:00.000Z</time>
      </trkpt>
      <trkpt lat="44.91375" lon="4.42684">
        <ele>499</ele>
        <time>2017-04-02T15:17:13.000Z</time>
      </trkpt>
      <trkpt lat="44.91367" lon="4.42692">
        <ele>499</ele>
        <time>2017-04-02T15:17:24.000Z</time>
      </trkpt>
      <trkpt lat="44.91355" lon="4.42699">
        <ele>494</ele>
        <time>2017-04-02T15:17:35.000Z</time>
      </trkpt>
      <trkpt lat="44.91345" lon="4.42702">
        <ele>493</ele>
        <time>2017-04-02T15:17:47.000Z</time>
      </trkpt>
      <trkpt lat="44.91336" lon="4.42707">
        <ele>492</ele>
        <time>2017-04-02T15:18:06.000Z</time>
      </trkpt>
      <trkpt lat="44.91326" lon="4.42705">
        <ele>491</ele>
        <time>2017-04-02T15:18:18.000Z</time>
      </trkpt>
      <trkpt lat="44.91316" lon="4.42702">
        <ele>489</ele>
        <time>2017-04-02T15:18:29.000Z</time>
      </trkpt>
      <trkpt lat="44.91306" lon="4.42711">
        <ele>491</ele>
        <time>2017-04-02T15:18:46.000Z</time>
      </trkpt>
      <trkpt lat="44.91295" lon="4.42716">
        <ele>493</ele>
        <time>2017-04-02T15:19:06.000Z</time>
      </trkpt>
      <trkpt lat="44.91299" lon="4.42732">
        <ele>485</ele>
        <time>2017-04-02T15:19:24.000Z</time>
      </trkpt>
      <trkpt lat="44.91303" lon="4.42743">
        <ele>483</ele>
        <time>2017-04-02T15:19:42.000Z</time>
      </trkpt>
      <trkpt lat="44.91307" lon="4.42756">
        <ele>486</ele>
        <time>2017-04-02T15:19:56.000Z</time>
      </trkpt>
      <trkpt lat="44.91317" lon="4.42766">
        <ele>491</ele>
        <time>2017-04-02T15:20:10.000Z</time>
      </trkpt>
      <trkpt lat="44.91326" lon="4.42775">
        <ele>486</ele>
        <time>2017-04-02T15:20:21.000Z</time>
      </trkpt>
    </trkseg>
  </trk>
</gpx>